<?xml version="1.0" encoding="UTF-8" standalone="no" ?>
<gpx xmlns="http://www.topografix.com/GPX/1/1" xmlns:xsi="http://www.w3.org/2001/XMLSchema-instance" xsi:schemaLocation="http://www.topografix.com/GPX/1/1 http://www.topografix.com/GPX/1/1/gpx.xsd" version="1.1" creator="VisuGPX - https://www.visugpx.com">
  <metadata>
    <name>2020-06-17-01_ChaillevetteChatressacRNPRY08T</name>
  </metadata>
  <trk>
    <name><![CDATA[2020-06-17-01_ChaillevetteChatressacRNPRY08T]]></name>
    <trkseg>
      <trkpt lat="45.73156" lon="-1.06901">
        <ele>7</ele>
        <time>2020-06-17T06:58:18Z</time>
      </trkpt>
      <trkpt lat="45.73157" lon="-1.06901">
        <ele>7</ele>
        <time>2020-06-17T06:58:19Z</time>
      </trkpt>
      <trkpt lat="45.73164" lon="-1.06892">
        <ele>7.3</ele>
        <time>2020-06-17T06:58:38Z</time>
      </trkpt>
      <trkpt lat="45.73169" lon="-1.06903">
        <ele>7.5</ele>
        <time>2020-06-17T06:58:57Z</time>
      </trkpt>
      <trkpt lat="45.73163" lon="-1.06914">
        <ele>7.6</ele>
        <time>2020-06-17T06:59:08Z</time>
      </trkpt>
      <trkpt lat="45.73155" lon="-1.06921">
        <ele>7.6</ele>
        <time>2020-06-17T06:59:17Z</time>
      </trkpt>
      <trkpt lat="45.73149" lon="-1.0693">
        <ele>7.6</ele>
        <time>2020-06-17T06:59:25Z</time>
      </trkpt>
      <trkpt lat="45.73141" lon="-1.06939">
        <ele>7.6</ele>
        <time>2020-06-17T06:59:34Z</time>
      </trkpt>
      <trkpt lat="45.73134" lon="-1.06947">
        <ele>7.6</ele>
        <time>2020-06-17T06:59:46Z</time>
      </trkpt>
      <trkpt lat="45.73127" lon="-1.06956">
        <ele>7.7</ele>
        <time>2020-06-17T06:59:54Z</time>
      </trkpt>
      <trkpt lat="45.73118" lon="-1.06965">
        <ele>7.8</ele>
        <time>2020-06-17T07:00:03Z</time>
      </trkpt>
      <trkpt lat="45.7311" lon="-1.06972">
        <ele>8.2</ele>
        <time>2020-06-17T07:00:12Z</time>
      </trkpt>
      <trkpt lat="45.73103" lon="-1.06982">
        <ele>8.5</ele>
        <time>2020-06-17T07:00:21Z</time>
      </trkpt>
      <trkpt lat="45.73097" lon="-1.06992">
        <ele>8.7</ele>
        <time>2020-06-17T07:00:28Z</time>
      </trkpt>
      <trkpt lat="45.7309" lon="-1.07002">
        <ele>9.1</ele>
        <time>2020-06-17T07:00:36Z</time>
      </trkpt>
      <trkpt lat="45.73084" lon="-1.07013">
        <ele>9.5</ele>
        <time>2020-06-17T07:00:45Z</time>
      </trkpt>
      <trkpt lat="45.73077" lon="-1.07022">
        <ele>9.8</ele>
        <time>2020-06-17T07:00:52Z</time>
      </trkpt>
      <trkpt lat="45.7307" lon="-1.07032">
        <ele>10.3</ele>
        <time>2020-06-17T07:01:00Z</time>
      </trkpt>
      <trkpt lat="45.73066" lon="-1.07044">
        <ele>11</ele>
        <time>2020-06-17T07:01:08Z</time>
      </trkpt>
      <trkpt lat="45.7306" lon="-1.07054">
        <ele>11.5</ele>
        <time>2020-06-17T07:01:15Z</time>
      </trkpt>
      <trkpt lat="45.73052" lon="-1.07062">
        <ele>11.9</ele>
        <time>2020-06-17T07:01:23Z</time>
      </trkpt>
      <trkpt lat="45.73043" lon="-1.07057">
        <ele>12.3</ele>
        <time>2020-06-17T07:01:30Z</time>
      </trkpt>
      <trkpt lat="45.73041" lon="-1.07044">
        <ele>12.6</ele>
        <time>2020-06-17T07:01:38Z</time>
      </trkpt>
      <trkpt lat="45.73041" lon="-1.0703">
        <ele>12.7</ele>
        <time>2020-06-17T07:01:45Z</time>
      </trkpt>
      <trkpt lat="45.73042" lon="-1.07016">
        <ele>12.9</ele>
        <time>2020-06-17T07:01:52Z</time>
      </trkpt>
      <trkpt lat="45.73042" lon="-1.07003">
        <ele>12.9</ele>
        <time>2020-06-17T07:01:59Z</time>
      </trkpt>
      <trkpt lat="45.73042" lon="-1.0699">
        <ele>13</ele>
        <time>2020-06-17T07:02:06Z</time>
      </trkpt>
      <trkpt lat="45.73042" lon="-1.06975">
        <ele>13</ele>
        <time>2020-06-17T07:02:13Z</time>
      </trkpt>
      <trkpt lat="45.73039" lon="-1.06963">
        <ele>13</ele>
        <time>2020-06-17T07:02:20Z</time>
      </trkpt>
      <trkpt lat="45.73035" lon="-1.06949">
        <ele>13</ele>
        <time>2020-06-17T07:02:28Z</time>
      </trkpt>
      <trkpt lat="45.73029" lon="-1.06939">
        <ele>13</ele>
        <time>2020-06-17T07:02:35Z</time>
      </trkpt>
      <trkpt lat="45.73023" lon="-1.06928">
        <ele>13</ele>
        <time>2020-06-17T07:02:42Z</time>
      </trkpt>
      <trkpt lat="45.73017" lon="-1.06917">
        <ele>12.9</ele>
        <time>2020-06-17T07:02:49Z</time>
      </trkpt>
      <trkpt lat="45.7301" lon="-1.06907">
        <ele>12.9</ele>
        <time>2020-06-17T07:02:57Z</time>
      </trkpt>
      <trkpt lat="45.73003" lon="-1.06897">
        <ele>12.9</ele>
        <time>2020-06-17T07:03:05Z</time>
      </trkpt>
      <trkpt lat="45.72997" lon="-1.06886">
        <ele>13</ele>
        <time>2020-06-17T07:03:12Z</time>
      </trkpt>
      <trkpt lat="45.72989" lon="-1.06878">
        <ele>13</ele>
        <time>2020-06-17T07:03:19Z</time>
      </trkpt>
      <trkpt lat="45.72984" lon="-1.06867">
        <ele>13.1</ele>
        <time>2020-06-17T07:03:26Z</time>
      </trkpt>
      <trkpt lat="45.72977" lon="-1.06858">
        <ele>13.1</ele>
        <time>2020-06-17T07:03:33Z</time>
      </trkpt>
      <trkpt lat="45.7297" lon="-1.06848">
        <ele>13.4</ele>
        <time>2020-06-17T07:03:40Z</time>
      </trkpt>
      <trkpt lat="45.72963" lon="-1.0684">
        <ele>13.5</ele>
        <time>2020-06-17T07:03:47Z</time>
      </trkpt>
      <trkpt lat="45.72956" lon="-1.0683">
        <ele>13.6</ele>
        <time>2020-06-17T07:03:55Z</time>
      </trkpt>
      <trkpt lat="45.72948" lon="-1.06822">
        <ele>14</ele>
        <time>2020-06-17T07:04:02Z</time>
      </trkpt>
      <trkpt lat="45.72941" lon="-1.06813">
        <ele>14.2</ele>
        <time>2020-06-17T07:04:09Z</time>
      </trkpt>
      <trkpt lat="45.72933" lon="-1.06806">
        <ele>14.4</ele>
        <time>2020-06-17T07:04:16Z</time>
      </trkpt>
      <trkpt lat="45.72925" lon="-1.06798">
        <ele>14.5</ele>
        <time>2020-06-17T07:04:23Z</time>
      </trkpt>
      <trkpt lat="45.72918" lon="-1.06788">
        <ele>14.6</ele>
        <time>2020-06-17T07:04:30Z</time>
      </trkpt>
      <trkpt lat="45.7291" lon="-1.0678">
        <ele>14.6</ele>
        <time>2020-06-17T07:04:38Z</time>
      </trkpt>
      <trkpt lat="45.72902" lon="-1.06771">
        <ele>14.5</ele>
        <time>2020-06-17T07:04:46Z</time>
      </trkpt>
      <trkpt lat="45.72894" lon="-1.06762">
        <ele>14.3</ele>
        <time>2020-06-17T07:04:54Z</time>
      </trkpt>
      <trkpt lat="45.72887" lon="-1.06753">
        <ele>14</ele>
        <time>2020-06-17T07:05:01Z</time>
      </trkpt>
      <trkpt lat="45.72878" lon="-1.06744">
        <ele>13.7</ele>
        <time>2020-06-17T07:05:09Z</time>
      </trkpt>
      <trkpt lat="45.72871" lon="-1.06735">
        <ele>13.5</ele>
        <time>2020-06-17T07:05:16Z</time>
      </trkpt>
      <trkpt lat="45.72864" lon="-1.06725">
        <ele>13.4</ele>
        <time>2020-06-17T07:05:24Z</time>
      </trkpt>
      <trkpt lat="45.72856" lon="-1.06717">
        <ele>13.4</ele>
        <time>2020-06-17T07:05:31Z</time>
      </trkpt>
      <trkpt lat="45.72848" lon="-1.0671">
        <ele>13.2</ele>
        <time>2020-06-17T07:05:38Z</time>
      </trkpt>
      <trkpt lat="45.7284" lon="-1.06702">
        <ele>13.1</ele>
        <time>2020-06-17T07:05:45Z</time>
      </trkpt>
      <trkpt lat="45.72833" lon="-1.06694">
        <ele>12.9</ele>
        <time>2020-06-17T07:05:52Z</time>
      </trkpt>
      <trkpt lat="45.72826" lon="-1.06686">
        <ele>12.8</ele>
        <time>2020-06-17T07:05:59Z</time>
      </trkpt>
      <trkpt lat="45.72818" lon="-1.06677">
        <ele>12.7</ele>
        <time>2020-06-17T07:06:06Z</time>
      </trkpt>
      <trkpt lat="45.7281" lon="-1.06668">
        <ele>12.6</ele>
        <time>2020-06-17T07:06:14Z</time>
      </trkpt>
      <trkpt lat="45.72802" lon="-1.0666">
        <ele>12.5</ele>
        <time>2020-06-17T07:06:21Z</time>
      </trkpt>
      <trkpt lat="45.72795" lon="-1.06652">
        <ele>12.2</ele>
        <time>2020-06-17T07:06:27Z</time>
      </trkpt>
      <trkpt lat="45.72788" lon="-1.06643">
        <ele>12</ele>
        <time>2020-06-17T07:06:34Z</time>
      </trkpt>
      <trkpt lat="45.72781" lon="-1.06636">
        <ele>11.8</ele>
        <time>2020-06-17T07:06:41Z</time>
      </trkpt>
      <trkpt lat="45.72774" lon="-1.06627">
        <ele>11.6</ele>
        <time>2020-06-17T07:06:48Z</time>
      </trkpt>
      <trkpt lat="45.72767" lon="-1.06619">
        <ele>11.4</ele>
        <time>2020-06-17T07:06:55Z</time>
      </trkpt>
      <trkpt lat="45.7276" lon="-1.06611">
        <ele>11.2</ele>
        <time>2020-06-17T07:07:02Z</time>
      </trkpt>
      <trkpt lat="45.72753" lon="-1.06602">
        <ele>10.9</ele>
        <time>2020-06-17T07:07:09Z</time>
      </trkpt>
      <trkpt lat="45.72745" lon="-1.06594">
        <ele>10.6</ele>
        <time>2020-06-17T07:07:16Z</time>
      </trkpt>
      <trkpt lat="45.72737" lon="-1.06585">
        <ele>10</ele>
        <time>2020-06-17T07:07:23Z</time>
      </trkpt>
      <trkpt lat="45.72729" lon="-1.06576">
        <ele>9.6</ele>
        <time>2020-06-17T07:07:31Z</time>
      </trkpt>
      <trkpt lat="45.72722" lon="-1.06568">
        <ele>9.4</ele>
        <time>2020-06-17T07:07:38Z</time>
      </trkpt>
      <trkpt lat="45.72714" lon="-1.06559">
        <ele>9.3</ele>
        <time>2020-06-17T07:07:45Z</time>
      </trkpt>
      <trkpt lat="45.72706" lon="-1.06552">
        <ele>9.1</ele>
        <time>2020-06-17T07:07:52Z</time>
      </trkpt>
      <trkpt lat="45.72699" lon="-1.06542">
        <ele>9</ele>
        <time>2020-06-17T07:08:00Z</time>
      </trkpt>
      <trkpt lat="45.72692" lon="-1.06533">
        <ele>8.8</ele>
        <time>2020-06-17T07:08:07Z</time>
      </trkpt>
      <trkpt lat="45.72684" lon="-1.06524">
        <ele>8.7</ele>
        <time>2020-06-17T07:08:15Z</time>
      </trkpt>
      <trkpt lat="45.72676" lon="-1.06515">
        <ele>8.6</ele>
        <time>2020-06-17T07:08:23Z</time>
      </trkpt>
      <trkpt lat="45.72669" lon="-1.06507">
        <ele>8.5</ele>
        <time>2020-06-17T07:08:30Z</time>
      </trkpt>
      <trkpt lat="45.72661" lon="-1.06498">
        <ele>8.5</ele>
        <time>2020-06-17T07:08:38Z</time>
      </trkpt>
      <trkpt lat="45.72654" lon="-1.0649">
        <ele>8.5</ele>
        <time>2020-06-17T07:08:45Z</time>
      </trkpt>
      <trkpt lat="45.72646" lon="-1.06482">
        <ele>8.5</ele>
        <time>2020-06-17T07:08:53Z</time>
      </trkpt>
      <trkpt lat="45.72639" lon="-1.06472">
        <ele>8.5</ele>
        <time>2020-06-17T07:09:01Z</time>
      </trkpt>
      <trkpt lat="45.72631" lon="-1.06463">
        <ele>8.5</ele>
        <time>2020-06-17T07:09:09Z</time>
      </trkpt>
      <trkpt lat="45.72623" lon="-1.06455">
        <ele>8.4</ele>
        <time>2020-06-17T07:09:17Z</time>
      </trkpt>
      <trkpt lat="45.72616" lon="-1.06446">
        <ele>8.4</ele>
        <time>2020-06-17T07:09:30Z</time>
      </trkpt>
      <trkpt lat="45.72613" lon="-1.06433">
        <ele>8.4</ele>
        <time>2020-06-17T07:09:38Z</time>
      </trkpt>
      <trkpt lat="45.72606" lon="-1.06425">
        <ele>8.4</ele>
        <time>2020-06-17T07:09:47Z</time>
      </trkpt>
      <trkpt lat="45.72598" lon="-1.06416">
        <ele>8.4</ele>
        <time>2020-06-17T07:09:56Z</time>
      </trkpt>
      <trkpt lat="45.7259" lon="-1.06409">
        <ele>8.4</ele>
        <time>2020-06-17T07:10:05Z</time>
      </trkpt>
      <trkpt lat="45.72583" lon="-1.06401">
        <ele>8.5</ele>
        <time>2020-06-17T07:10:13Z</time>
      </trkpt>
      <trkpt lat="45.72574" lon="-1.06394">
        <ele>8.6</ele>
        <time>2020-06-17T07:10:21Z</time>
      </trkpt>
      <trkpt lat="45.72566" lon="-1.06387">
        <ele>8.7</ele>
        <time>2020-06-17T07:10:28Z</time>
      </trkpt>
      <trkpt lat="45.72558" lon="-1.0638">
        <ele>8.9</ele>
        <time>2020-06-17T07:10:37Z</time>
      </trkpt>
      <trkpt lat="45.72549" lon="-1.06374">
        <ele>9.2</ele>
        <time>2020-06-17T07:10:46Z</time>
      </trkpt>
      <trkpt lat="45.7254" lon="-1.06371">
        <ele>9.4</ele>
        <time>2020-06-17T07:10:53Z</time>
      </trkpt>
      <trkpt lat="45.7253" lon="-1.0637">
        <ele>9.8</ele>
        <time>2020-06-17T07:11:02Z</time>
      </trkpt>
      <trkpt lat="45.72522" lon="-1.06364">
        <ele>10.1</ele>
        <time>2020-06-17T07:11:13Z</time>
      </trkpt>
      <trkpt lat="45.72513" lon="-1.06358">
        <ele>10.5</ele>
        <time>2020-06-17T07:11:21Z</time>
      </trkpt>
      <trkpt lat="45.72504" lon="-1.06354">
        <ele>10.7</ele>
        <time>2020-06-17T07:11:30Z</time>
      </trkpt>
      <trkpt lat="45.72495" lon="-1.06353">
        <ele>10.9</ele>
        <time>2020-06-17T07:11:39Z</time>
      </trkpt>
      <trkpt lat="45.72485" lon="-1.06348">
        <ele>11</ele>
        <time>2020-06-17T07:11:47Z</time>
      </trkpt>
      <trkpt lat="45.72477" lon="-1.06343">
        <ele>11</ele>
        <time>2020-06-17T07:11:54Z</time>
      </trkpt>
      <trkpt lat="45.72469" lon="-1.06337">
        <ele>10.8</ele>
        <time>2020-06-17T07:12:00Z</time>
      </trkpt>
      <trkpt lat="45.7246" lon="-1.06332">
        <ele>10.5</ele>
        <time>2020-06-17T07:12:08Z</time>
      </trkpt>
      <trkpt lat="45.72449" lon="-1.06332">
        <ele>10.1</ele>
        <time>2020-06-17T07:12:15Z</time>
      </trkpt>
      <trkpt lat="45.7244" lon="-1.06337">
        <ele>9.7</ele>
        <time>2020-06-17T07:12:23Z</time>
      </trkpt>
      <trkpt lat="45.72432" lon="-1.06343">
        <ele>9</ele>
        <time>2020-06-17T07:12:31Z</time>
      </trkpt>
      <trkpt lat="45.72423" lon="-1.06348">
        <ele>8.5</ele>
        <time>2020-06-17T07:12:37Z</time>
      </trkpt>
      <trkpt lat="45.72414" lon="-1.06346">
        <ele>7.9</ele>
        <time>2020-06-17T07:12:48Z</time>
      </trkpt>
      <trkpt lat="45.72405" lon="-1.06342">
        <ele>7.4</ele>
        <time>2020-06-17T07:12:55Z</time>
      </trkpt>
      <trkpt lat="45.72397" lon="-1.06333">
        <ele>7.2</ele>
        <time>2020-06-17T07:13:01Z</time>
      </trkpt>
      <trkpt lat="45.72389" lon="-1.06325">
        <ele>6.8</ele>
        <time>2020-06-17T07:13:09Z</time>
      </trkpt>
      <trkpt lat="45.72382" lon="-1.06314">
        <ele>6.4</ele>
        <time>2020-06-17T07:13:17Z</time>
      </trkpt>
      <trkpt lat="45.72374" lon="-1.06305">
        <ele>6</ele>
        <time>2020-06-17T07:13:25Z</time>
      </trkpt>
      <trkpt lat="45.72367" lon="-1.06296">
        <ele>5.7</ele>
        <time>2020-06-17T07:13:33Z</time>
      </trkpt>
      <trkpt lat="45.7236" lon="-1.06286">
        <ele>5.3</ele>
        <time>2020-06-17T07:13:41Z</time>
      </trkpt>
      <trkpt lat="45.72352" lon="-1.06278">
        <ele>4.7</ele>
        <time>2020-06-17T07:13:48Z</time>
      </trkpt>
      <trkpt lat="45.72344" lon="-1.06274">
        <ele>4.2</ele>
        <time>2020-06-17T07:13:56Z</time>
      </trkpt>
      <trkpt lat="45.72335" lon="-1.06269">
        <ele>4</ele>
        <time>2020-06-17T07:14:03Z</time>
      </trkpt>
      <trkpt lat="45.72326" lon="-1.06267">
        <ele>3.6</ele>
        <time>2020-06-17T07:14:10Z</time>
      </trkpt>
      <trkpt lat="45.72316" lon="-1.06264">
        <ele>3.3</ele>
        <time>2020-06-17T07:14:18Z</time>
      </trkpt>
      <trkpt lat="45.72307" lon="-1.06262">
        <ele>3</ele>
        <time>2020-06-17T07:14:25Z</time>
      </trkpt>
      <trkpt lat="45.72298" lon="-1.06259">
        <ele>2.8</ele>
        <time>2020-06-17T07:14:33Z</time>
      </trkpt>
      <trkpt lat="45.72288" lon="-1.06257">
        <ele>2.5</ele>
        <time>2020-06-17T07:14:42Z</time>
      </trkpt>
      <trkpt lat="45.72279" lon="-1.06255">
        <ele>2.4</ele>
        <time>2020-06-17T07:14:50Z</time>
      </trkpt>
      <trkpt lat="45.72269" lon="-1.06254">
        <ele>2.1</ele>
        <time>2020-06-17T07:15:03Z</time>
      </trkpt>
      <trkpt lat="45.72264" lon="-1.06243">
        <ele>2</ele>
        <time>2020-06-17T07:15:11Z</time>
      </trkpt>
      <trkpt lat="45.72258" lon="-1.06232">
        <ele>1.6</ele>
        <time>2020-06-17T07:15:19Z</time>
      </trkpt>
      <trkpt lat="45.72251" lon="-1.0622">
        <ele>1.3</ele>
        <time>2020-06-17T07:15:27Z</time>
      </trkpt>
      <trkpt lat="45.72246" lon="-1.06208">
        <ele>1.2</ele>
        <time>2020-06-17T07:15:35Z</time>
      </trkpt>
      <trkpt lat="45.72242" lon="-1.06196">
        <ele>1.1</ele>
        <time>2020-06-17T07:15:42Z</time>
      </trkpt>
      <trkpt lat="45.72236" lon="-1.06183">
        <ele>1</ele>
        <time>2020-06-17T07:15:50Z</time>
      </trkpt>
      <trkpt lat="45.72231" lon="-1.06172">
        <ele>1</ele>
        <time>2020-06-17T07:15:58Z</time>
      </trkpt>
      <trkpt lat="45.72225" lon="-1.06161">
        <ele>1</ele>
        <time>2020-06-17T07:16:05Z</time>
      </trkpt>
      <trkpt lat="45.72218" lon="-1.06151">
        <ele>0.9</ele>
        <time>2020-06-17T07:16:13Z</time>
      </trkpt>
      <trkpt lat="45.7221" lon="-1.06142">
        <ele>0.9</ele>
        <time>2020-06-17T07:16:21Z</time>
      </trkpt>
      <trkpt lat="45.72202" lon="-1.06135">
        <ele>0.9</ele>
        <time>2020-06-17T07:16:28Z</time>
      </trkpt>
      <trkpt lat="45.72194" lon="-1.06128">
        <ele>0.9</ele>
        <time>2020-06-17T07:16:36Z</time>
      </trkpt>
      <trkpt lat="45.72186" lon="-1.06122">
        <ele>0.9</ele>
        <time>2020-06-17T07:16:46Z</time>
      </trkpt>
      <trkpt lat="45.72178" lon="-1.06116">
        <ele>0.9</ele>
        <time>2020-06-17T07:16:54Z</time>
      </trkpt>
      <trkpt lat="45.72168" lon="-1.06112">
        <ele>0.9</ele>
        <time>2020-06-17T07:17:02Z</time>
      </trkpt>
      <trkpt lat="45.72159" lon="-1.06108">
        <ele>1</ele>
        <time>2020-06-17T07:17:09Z</time>
      </trkpt>
      <trkpt lat="45.72149" lon="-1.06104">
        <ele>1.1</ele>
        <time>2020-06-17T07:17:17Z</time>
      </trkpt>
      <trkpt lat="45.72139" lon="-1.06104">
        <ele>1</ele>
        <time>2020-06-17T07:17:25Z</time>
      </trkpt>
      <trkpt lat="45.72134" lon="-1.06116">
        <ele>1</ele>
        <time>2020-06-17T07:17:33Z</time>
      </trkpt>
      <trkpt lat="45.7213" lon="-1.06128">
        <ele>1</ele>
        <time>2020-06-17T07:17:41Z</time>
      </trkpt>
      <trkpt lat="45.72125" lon="-1.0614">
        <ele>1</ele>
        <time>2020-06-17T07:17:49Z</time>
      </trkpt>
      <trkpt lat="45.7212" lon="-1.06152">
        <ele>1</ele>
        <time>2020-06-17T07:17:58Z</time>
      </trkpt>
      <trkpt lat="45.72114" lon="-1.06163">
        <ele>1</ele>
        <time>2020-06-17T07:18:05Z</time>
      </trkpt>
      <trkpt lat="45.7211" lon="-1.06176">
        <ele>1</ele>
        <time>2020-06-17T07:18:12Z</time>
      </trkpt>
      <trkpt lat="45.72105" lon="-1.06187">
        <ele>1.1</ele>
        <time>2020-06-17T07:18:20Z</time>
      </trkpt>
      <trkpt lat="45.72099" lon="-1.06198">
        <ele>1.4</ele>
        <time>2020-06-17T07:18:29Z</time>
      </trkpt>
      <trkpt lat="45.72094" lon="-1.0621">
        <ele>1.7</ele>
        <time>2020-06-17T07:18:38Z</time>
      </trkpt>
      <trkpt lat="45.72088" lon="-1.06221">
        <ele>2</ele>
        <time>2020-06-17T07:18:49Z</time>
      </trkpt>
      <trkpt lat="45.72083" lon="-1.06232">
        <ele>2.2</ele>
        <time>2020-06-17T07:19:00Z</time>
      </trkpt>
      <trkpt lat="45.72079" lon="-1.06244">
        <ele>2.2</ele>
        <time>2020-06-17T07:19:10Z</time>
      </trkpt>
      <trkpt lat="45.72071" lon="-1.0625">
        <ele>2.3</ele>
        <time>2020-06-17T07:19:20Z</time>
      </trkpt>
      <trkpt lat="45.72061" lon="-1.06257">
        <ele>2.4</ele>
        <time>2020-06-17T07:19:28Z</time>
      </trkpt>
      <trkpt lat="45.72052" lon="-1.06264">
        <ele>2.5</ele>
        <time>2020-06-17T07:19:38Z</time>
      </trkpt>
      <trkpt lat="45.72044" lon="-1.06268">
        <ele>2.6</ele>
        <time>2020-06-17T07:19:44Z</time>
      </trkpt>
      <trkpt lat="45.72035" lon="-1.06274">
        <ele>2.6</ele>
        <time>2020-06-17T07:19:52Z</time>
      </trkpt>
      <trkpt lat="45.72027" lon="-1.06282">
        <ele>2.7</ele>
        <time>2020-06-17T07:19:59Z</time>
      </trkpt>
      <trkpt lat="45.72018" lon="-1.06287">
        <ele>2.7</ele>
        <time>2020-06-17T07:20:09Z</time>
      </trkpt>
      <trkpt lat="45.72009" lon="-1.06293">
        <ele>2.7</ele>
        <time>2020-06-17T07:20:17Z</time>
      </trkpt>
      <trkpt lat="45.72002" lon="-1.06303">
        <ele>2.7</ele>
        <time>2020-06-17T07:20:26Z</time>
      </trkpt>
      <trkpt lat="45.71995" lon="-1.06315">
        <ele>2.7</ele>
        <time>2020-06-17T07:20:36Z</time>
      </trkpt>
      <trkpt lat="45.71988" lon="-1.06326">
        <ele>2.7</ele>
        <time>2020-06-17T07:20:46Z</time>
      </trkpt>
      <trkpt lat="45.7198" lon="-1.0633">
        <ele>2.7</ele>
        <time>2020-06-17T07:20:53Z</time>
      </trkpt>
      <trkpt lat="45.71972" lon="-1.06337">
        <ele>2.7</ele>
        <time>2020-06-17T07:21:02Z</time>
      </trkpt>
      <trkpt lat="45.71962" lon="-1.06348">
        <ele>2.7</ele>
        <time>2020-06-17T07:21:09Z</time>
      </trkpt>
      <trkpt lat="45.71956" lon="-1.06357">
        <ele>2.8</ele>
        <time>2020-06-17T07:21:18Z</time>
      </trkpt>
      <trkpt lat="45.71954" lon="-1.06371">
        <ele>2.8</ele>
        <time>2020-06-17T07:21:29Z</time>
      </trkpt>
      <trkpt lat="45.71955" lon="-1.06385">
        <ele>2.8</ele>
        <time>2020-06-17T07:21:37Z</time>
      </trkpt>
      <trkpt lat="45.71951" lon="-1.06396">
        <ele>2.8</ele>
        <time>2020-06-17T07:21:46Z</time>
      </trkpt>
      <trkpt lat="45.71952" lon="-1.0641">
        <ele>2.8</ele>
        <time>2020-06-17T07:21:54Z</time>
      </trkpt>
      <trkpt lat="45.7195" lon="-1.06424">
        <ele>3</ele>
        <time>2020-06-17T07:22:04Z</time>
      </trkpt>
      <trkpt lat="45.71947" lon="-1.06437">
        <ele>3.3</ele>
        <time>2020-06-17T07:22:11Z</time>
      </trkpt>
      <trkpt lat="45.7195" lon="-1.0645">
        <ele>3.4</ele>
        <time>2020-06-17T07:22:18Z</time>
      </trkpt>
      <trkpt lat="45.71946" lon="-1.06462">
        <ele>3.8</ele>
        <time>2020-06-17T07:22:34Z</time>
      </trkpt>
      <trkpt lat="45.71937" lon="-1.06464">
        <ele>3.9</ele>
        <time>2020-06-17T07:22:45Z</time>
      </trkpt>
      <trkpt lat="45.7193" lon="-1.06474">
        <ele>4.1</ele>
        <time>2020-06-17T07:22:53Z</time>
      </trkpt>
      <trkpt lat="45.71934" lon="-1.06487">
        <ele>5.1</ele>
        <time>2020-06-17T07:24:29Z</time>
      </trkpt>
      <trkpt lat="45.71936" lon="-1.065">
        <ele>5.1</ele>
        <time>2020-06-17T07:24:40Z</time>
      </trkpt>
      <trkpt lat="45.71932" lon="-1.06512">
        <ele>5.1</ele>
        <time>2020-06-17T07:24:54Z</time>
      </trkpt>
      <trkpt lat="45.71933" lon="-1.06525">
        <ele>5.1</ele>
        <time>2020-06-17T07:25:11Z</time>
      </trkpt>
      <trkpt lat="45.71934" lon="-1.06538">
        <ele>5.2</ele>
        <time>2020-06-17T07:25:20Z</time>
      </trkpt>
      <trkpt lat="45.71943" lon="-1.06539">
        <ele>5.3</ele>
        <time>2020-06-17T07:25:31Z</time>
      </trkpt>
      <trkpt lat="45.71952" lon="-1.06537">
        <ele>5</ele>
        <time>2020-06-17T07:25:37Z</time>
      </trkpt>
      <trkpt lat="45.71954" lon="-1.06525">
        <ele>3.9</ele>
        <time>2020-06-17T07:26:06Z</time>
      </trkpt>
      <trkpt lat="45.71961" lon="-1.06515">
        <ele>3.7</ele>
        <time>2020-06-17T07:26:19Z</time>
      </trkpt>
      <trkpt lat="45.7197" lon="-1.06512">
        <ele>3.8</ele>
        <time>2020-06-17T07:26:37Z</time>
      </trkpt>
      <trkpt lat="45.71983" lon="-1.06511">
        <ele>3.9</ele>
        <time>2020-06-17T07:26:46Z</time>
      </trkpt>
      <trkpt lat="45.71991" lon="-1.06518">
        <ele>4</ele>
        <time>2020-06-17T07:27:05Z</time>
      </trkpt>
      <trkpt lat="45.72001" lon="-1.06522">
        <ele>4</ele>
        <time>2020-06-17T07:27:16Z</time>
      </trkpt>
      <trkpt lat="45.72007" lon="-1.06532">
        <ele>4</ele>
        <time>2020-06-17T07:27:32Z</time>
      </trkpt>
      <trkpt lat="45.72015" lon="-1.06526">
        <ele>4</ele>
        <time>2020-06-17T07:27:54Z</time>
      </trkpt>
      <trkpt lat="45.72022" lon="-1.06517">
        <ele>4</ele>
        <time>2020-06-17T07:28:03Z</time>
      </trkpt>
      <trkpt lat="45.72029" lon="-1.06507">
        <ele>4</ele>
        <time>2020-06-17T07:28:11Z</time>
      </trkpt>
      <trkpt lat="45.72036" lon="-1.06498">
        <ele>4</ele>
        <time>2020-06-17T07:28:22Z</time>
      </trkpt>
      <trkpt lat="45.72045" lon="-1.06495">
        <ele>4</ele>
        <time>2020-06-17T07:28:32Z</time>
      </trkpt>
      <trkpt lat="45.72052" lon="-1.06486">
        <ele>4</ele>
        <time>2020-06-17T07:28:40Z</time>
      </trkpt>
      <trkpt lat="45.72059" lon="-1.06478">
        <ele>4.1</ele>
        <time>2020-06-17T07:28:50Z</time>
      </trkpt>
      <trkpt lat="45.72067" lon="-1.06468">
        <ele>4.3</ele>
        <time>2020-06-17T07:29:09Z</time>
      </trkpt>
      <trkpt lat="45.72072" lon="-1.06457">
        <ele>4.4</ele>
        <time>2020-06-17T07:29:18Z</time>
      </trkpt>
      <trkpt lat="45.7208" lon="-1.06448">
        <ele>4.4</ele>
        <time>2020-06-17T07:29:30Z</time>
      </trkpt>
      <trkpt lat="45.72088" lon="-1.06438">
        <ele>4.5</ele>
        <time>2020-06-17T07:29:41Z</time>
      </trkpt>
      <trkpt lat="45.72097" lon="-1.06432">
        <ele>4.5</ele>
        <time>2020-06-17T07:29:50Z</time>
      </trkpt>
      <trkpt lat="45.72104" lon="-1.06424">
        <ele>4.5</ele>
        <time>2020-06-17T07:30:01Z</time>
      </trkpt>
      <trkpt lat="45.72112" lon="-1.06415">
        <ele>4.5</ele>
        <time>2020-06-17T07:30:10Z</time>
      </trkpt>
      <trkpt lat="45.7212" lon="-1.06408">
        <ele>4.5</ele>
        <time>2020-06-17T07:30:19Z</time>
      </trkpt>
      <trkpt lat="45.72128" lon="-1.06402">
        <ele>4.5</ele>
        <time>2020-06-17T07:30:29Z</time>
      </trkpt>
      <trkpt lat="45.72137" lon="-1.06396">
        <ele>4.5</ele>
        <time>2020-06-17T07:30:37Z</time>
      </trkpt>
      <trkpt lat="45.72146" lon="-1.06392">
        <ele>4.5</ele>
        <time>2020-06-17T07:30:46Z</time>
      </trkpt>
      <trkpt lat="45.72154" lon="-1.06387">
        <ele>4.5</ele>
        <time>2020-06-17T07:30:56Z</time>
      </trkpt>
      <trkpt lat="45.72157" lon="-1.06399">
        <ele>4.3</ele>
        <time>2020-06-17T07:31:18Z</time>
      </trkpt>
      <trkpt lat="45.72151" lon="-1.0641">
        <ele>4.3</ele>
        <time>2020-06-17T07:31:34Z</time>
      </trkpt>
      <trkpt lat="45.72144" lon="-1.0642">
        <ele>4.3</ele>
        <time>2020-06-17T07:31:47Z</time>
      </trkpt>
      <trkpt lat="45.72139" lon="-1.06431">
        <ele>4.3</ele>
        <time>2020-06-17T07:31:57Z</time>
      </trkpt>
      <trkpt lat="45.72136" lon="-1.06445">
        <ele>4.4</ele>
        <time>2020-06-17T07:32:07Z</time>
      </trkpt>
      <trkpt lat="45.72129" lon="-1.06455">
        <ele>4.4</ele>
        <time>2020-06-17T07:32:17Z</time>
      </trkpt>
      <trkpt lat="45.72123" lon="-1.06465">
        <ele>4.4</ele>
        <time>2020-06-17T07:32:28Z</time>
      </trkpt>
      <trkpt lat="45.72118" lon="-1.06477">
        <ele>4.4</ele>
        <time>2020-06-17T07:32:35Z</time>
      </trkpt>
      <trkpt lat="45.72118" lon="-1.0649">
        <ele>4.5</ele>
        <time>2020-06-17T07:32:42Z</time>
      </trkpt>
      <trkpt lat="45.72115" lon="-1.06503">
        <ele>4.6</ele>
        <time>2020-06-17T07:32:50Z</time>
      </trkpt>
      <trkpt lat="45.72108" lon="-1.06514">
        <ele>4.8</ele>
        <time>2020-06-17T07:32:59Z</time>
      </trkpt>
      <trkpt lat="45.72101" lon="-1.06522">
        <ele>5</ele>
        <time>2020-06-17T07:33:07Z</time>
      </trkpt>
      <trkpt lat="45.72096" lon="-1.06533">
        <ele>5.2</ele>
        <time>2020-06-17T07:33:15Z</time>
      </trkpt>
      <trkpt lat="45.7209" lon="-1.06543">
        <ele>5.3</ele>
        <time>2020-06-17T07:33:23Z</time>
      </trkpt>
      <trkpt lat="45.72085" lon="-1.06554">
        <ele>5.3</ele>
        <time>2020-06-17T07:33:32Z</time>
      </trkpt>
      <trkpt lat="45.72088" lon="-1.06567">
        <ele>5.4</ele>
        <time>2020-06-17T07:33:42Z</time>
      </trkpt>
      <trkpt lat="45.72093" lon="-1.06577">
        <ele>5.4</ele>
        <time>2020-06-17T07:33:50Z</time>
      </trkpt>
      <trkpt lat="45.72101" lon="-1.06584">
        <ele>5.4</ele>
        <time>2020-06-17T07:33:55Z</time>
      </trkpt>
      <trkpt lat="45.72104" lon="-1.06597">
        <ele>5.4</ele>
        <time>2020-06-17T07:34:05Z</time>
      </trkpt>
      <trkpt lat="45.721" lon="-1.0661">
        <ele>5.4</ele>
        <time>2020-06-17T07:34:13Z</time>
      </trkpt>
      <trkpt lat="45.72094" lon="-1.0662">
        <ele>5.5</ele>
        <time>2020-06-17T07:34:23Z</time>
      </trkpt>
      <trkpt lat="45.72086" lon="-1.06628">
        <ele>5.8</ele>
        <time>2020-06-17T07:34:35Z</time>
      </trkpt>
      <trkpt lat="45.72081" lon="-1.06639">
        <ele>5.8</ele>
        <time>2020-06-17T07:34:43Z</time>
      </trkpt>
      <trkpt lat="45.72075" lon="-1.06649">
        <ele>5.9</ele>
        <time>2020-06-17T07:34:55Z</time>
      </trkpt>
      <trkpt lat="45.72069" lon="-1.0666">
        <ele>5.9</ele>
        <time>2020-06-17T07:35:02Z</time>
      </trkpt>
      <trkpt lat="45.72069" lon="-1.06673">
        <ele>6.2</ele>
        <time>2020-06-17T07:35:27Z</time>
      </trkpt>
      <trkpt lat="45.72076" lon="-1.06683">
        <ele>6.3</ele>
        <time>2020-06-17T07:35:38Z</time>
      </trkpt>
      <trkpt lat="45.72081" lon="-1.06694">
        <ele>6.3</ele>
        <time>2020-06-17T07:35:48Z</time>
      </trkpt>
      <trkpt lat="45.72086" lon="-1.06706">
        <ele>6.4</ele>
        <time>2020-06-17T07:35:58Z</time>
      </trkpt>
      <trkpt lat="45.72092" lon="-1.06718">
        <ele>6.4</ele>
        <time>2020-06-17T07:36:08Z</time>
      </trkpt>
      <trkpt lat="45.72097" lon="-1.06729">
        <ele>6.4</ele>
        <time>2020-06-17T07:36:16Z</time>
      </trkpt>
      <trkpt lat="45.72101" lon="-1.06741">
        <ele>6.4</ele>
        <time>2020-06-17T07:36:24Z</time>
      </trkpt>
      <trkpt lat="45.72107" lon="-1.06753">
        <ele>6.4</ele>
        <time>2020-06-17T07:36:33Z</time>
      </trkpt>
      <trkpt lat="45.72114" lon="-1.06762">
        <ele>6.3</ele>
        <time>2020-06-17T07:36:40Z</time>
      </trkpt>
      <trkpt lat="45.7212" lon="-1.06773">
        <ele>6.3</ele>
        <time>2020-06-17T07:36:47Z</time>
      </trkpt>
      <trkpt lat="45.72124" lon="-1.06785">
        <ele>6.4</ele>
        <time>2020-06-17T07:36:54Z</time>
      </trkpt>
      <trkpt lat="45.72128" lon="-1.06797">
        <ele>6.4</ele>
        <time>2020-06-17T07:37:02Z</time>
      </trkpt>
      <trkpt lat="45.72135" lon="-1.06807">
        <ele>6.4</ele>
        <time>2020-06-17T07:37:09Z</time>
      </trkpt>
      <trkpt lat="45.7214" lon="-1.06819">
        <ele>6.4</ele>
        <time>2020-06-17T07:37:16Z</time>
      </trkpt>
      <trkpt lat="45.72143" lon="-1.06832">
        <ele>6.5</ele>
        <time>2020-06-17T07:37:24Z</time>
      </trkpt>
      <trkpt lat="45.72139" lon="-1.06843">
        <ele>6.5</ele>
        <time>2020-06-17T07:37:37Z</time>
      </trkpt>
      <trkpt lat="45.72134" lon="-1.06855">
        <ele>6.5</ele>
        <time>2020-06-17T07:37:49Z</time>
      </trkpt>
      <trkpt lat="45.72132" lon="-1.06868">
        <ele>6.5</ele>
        <time>2020-06-17T07:37:58Z</time>
      </trkpt>
      <trkpt lat="45.72127" lon="-1.06881">
        <ele>6.5</ele>
        <time>2020-06-17T07:38:06Z</time>
      </trkpt>
      <trkpt lat="45.72122" lon="-1.06893">
        <ele>6.5</ele>
        <time>2020-06-17T07:38:13Z</time>
      </trkpt>
      <trkpt lat="45.72118" lon="-1.06905">
        <ele>6.5</ele>
        <time>2020-06-17T07:38:21Z</time>
      </trkpt>
      <trkpt lat="45.72116" lon="-1.06919">
        <ele>6.5</ele>
        <time>2020-06-17T07:38:29Z</time>
      </trkpt>
      <trkpt lat="45.72116" lon="-1.06932">
        <ele>6.5</ele>
        <time>2020-06-17T07:38:36Z</time>
      </trkpt>
      <trkpt lat="45.72117" lon="-1.06946">
        <ele>6.5</ele>
        <time>2020-06-17T07:38:43Z</time>
      </trkpt>
      <trkpt lat="45.72117" lon="-1.06961">
        <ele>6.5</ele>
        <time>2020-06-17T07:38:51Z</time>
      </trkpt>
      <trkpt lat="45.72117" lon="-1.06975">
        <ele>6.5</ele>
        <time>2020-06-17T07:38:58Z</time>
      </trkpt>
      <trkpt lat="45.72118" lon="-1.06989">
        <ele>6.5</ele>
        <time>2020-06-17T07:39:07Z</time>
      </trkpt>
      <trkpt lat="45.72119" lon="-1.07003">
        <ele>6.5</ele>
        <time>2020-06-17T07:39:16Z</time>
      </trkpt>
      <trkpt lat="45.72128" lon="-1.07003">
        <ele>6</ele>
        <time>2020-06-17T07:42:34Z</time>
      </trkpt>
      <trkpt lat="45.72137" lon="-1.06999">
        <ele>6.1</ele>
        <time>2020-06-17T07:42:46Z</time>
      </trkpt>
      <trkpt lat="45.72146" lon="-1.06994">
        <ele>6.2</ele>
        <time>2020-06-17T07:42:57Z</time>
      </trkpt>
      <trkpt lat="45.72154" lon="-1.06987">
        <ele>6.2</ele>
        <time>2020-06-17T07:43:14Z</time>
      </trkpt>
      <trkpt lat="45.72162" lon="-1.06982">
        <ele>6.2</ele>
        <time>2020-06-17T07:43:22Z</time>
      </trkpt>
      <trkpt lat="45.72172" lon="-1.06978">
        <ele>6.2</ele>
        <time>2020-06-17T07:43:31Z</time>
      </trkpt>
      <trkpt lat="45.7218" lon="-1.06973">
        <ele>6.2</ele>
        <time>2020-06-17T07:43:38Z</time>
      </trkpt>
      <trkpt lat="45.72189" lon="-1.0697">
        <ele>6.4</ele>
        <time>2020-06-17T07:43:46Z</time>
      </trkpt>
      <trkpt lat="45.72199" lon="-1.06966">
        <ele>6.5</ele>
        <time>2020-06-17T07:43:54Z</time>
      </trkpt>
      <trkpt lat="45.72208" lon="-1.06964">
        <ele>6.6</ele>
        <time>2020-06-17T07:44:02Z</time>
      </trkpt>
      <trkpt lat="45.72217" lon="-1.06963">
        <ele>6.8</ele>
        <time>2020-06-17T07:44:12Z</time>
      </trkpt>
      <trkpt lat="45.72226" lon="-1.06968">
        <ele>6.9</ele>
        <time>2020-06-17T07:44:19Z</time>
      </trkpt>
      <trkpt lat="45.72232" lon="-1.06977">
        <ele>7</ele>
        <time>2020-06-17T07:44:30Z</time>
      </trkpt>
      <trkpt lat="45.72231" lon="-1.06991">
        <ele>7.2</ele>
        <time>2020-06-17T07:44:37Z</time>
      </trkpt>
      <trkpt lat="45.72232" lon="-1.07005">
        <ele>7.3</ele>
        <time>2020-06-17T07:44:44Z</time>
      </trkpt>
      <trkpt lat="45.72235" lon="-1.07019">
        <ele>7.4</ele>
        <time>2020-06-17T07:44:53Z</time>
      </trkpt>
      <trkpt lat="45.7224" lon="-1.07032">
        <ele>7.5</ele>
        <time>2020-06-17T07:45:01Z</time>
      </trkpt>
      <trkpt lat="45.72243" lon="-1.07045">
        <ele>7.5</ele>
        <time>2020-06-17T07:45:09Z</time>
      </trkpt>
      <trkpt lat="45.72245" lon="-1.07059">
        <ele>7.6</ele>
        <time>2020-06-17T07:45:17Z</time>
      </trkpt>
      <trkpt lat="45.72249" lon="-1.07072">
        <ele>7.7</ele>
        <time>2020-06-17T07:45:25Z</time>
      </trkpt>
      <trkpt lat="45.72249" lon="-1.07085">
        <ele>7.8</ele>
        <time>2020-06-17T07:45:32Z</time>
      </trkpt>
      <trkpt lat="45.72249" lon="-1.07098">
        <ele>8</ele>
        <time>2020-06-17T07:45:39Z</time>
      </trkpt>
      <trkpt lat="45.72248" lon="-1.07112">
        <ele>8.3</ele>
        <time>2020-06-17T07:45:47Z</time>
      </trkpt>
      <trkpt lat="45.7225" lon="-1.07126">
        <ele>8.7</ele>
        <time>2020-06-17T07:45:55Z</time>
      </trkpt>
      <trkpt lat="45.72256" lon="-1.07137">
        <ele>9</ele>
        <time>2020-06-17T07:46:03Z</time>
      </trkpt>
      <trkpt lat="45.72261" lon="-1.07148">
        <ele>9.3</ele>
        <time>2020-06-17T07:46:10Z</time>
      </trkpt>
      <trkpt lat="45.72267" lon="-1.07158">
        <ele>10.1</ele>
        <time>2020-06-17T07:46:21Z</time>
      </trkpt>
      <trkpt lat="45.72272" lon="-1.07169">
        <ele>10.6</ele>
        <time>2020-06-17T07:46:30Z</time>
      </trkpt>
      <trkpt lat="45.72278" lon="-1.0718">
        <ele>11.2</ele>
        <time>2020-06-17T07:46:39Z</time>
      </trkpt>
      <trkpt lat="45.7228" lon="-1.07193">
        <ele>11.6</ele>
        <time>2020-06-17T07:46:48Z</time>
      </trkpt>
      <trkpt lat="45.72282" lon="-1.07207">
        <ele>12.1</ele>
        <time>2020-06-17T07:46:57Z</time>
      </trkpt>
      <trkpt lat="45.72283" lon="-1.07222">
        <ele>12.5</ele>
        <time>2020-06-17T07:47:07Z</time>
      </trkpt>
      <trkpt lat="45.72281" lon="-1.07235">
        <ele>12.7</ele>
        <time>2020-06-17T07:47:14Z</time>
      </trkpt>
      <trkpt lat="45.72282" lon="-1.07247">
        <ele>13</ele>
        <time>2020-06-17T07:47:22Z</time>
      </trkpt>
      <trkpt lat="45.72285" lon="-1.07261">
        <ele>13.3</ele>
        <time>2020-06-17T07:47:30Z</time>
      </trkpt>
      <trkpt lat="45.7229" lon="-1.07272">
        <ele>13.6</ele>
        <time>2020-06-17T07:47:38Z</time>
      </trkpt>
      <trkpt lat="45.72296" lon="-1.07282">
        <ele>13.8</ele>
        <time>2020-06-17T07:47:47Z</time>
      </trkpt>
      <trkpt lat="45.72302" lon="-1.07293">
        <ele>14.3</ele>
        <time>2020-06-17T07:47:56Z</time>
      </trkpt>
      <trkpt lat="45.7231" lon="-1.073">
        <ele>14.8</ele>
        <time>2020-06-17T07:48:04Z</time>
      </trkpt>
      <trkpt lat="45.72317" lon="-1.0731">
        <ele>15.2</ele>
        <time>2020-06-17T07:48:12Z</time>
      </trkpt>
      <trkpt lat="45.72323" lon="-1.0732">
        <ele>15.6</ele>
        <time>2020-06-17T07:48:21Z</time>
      </trkpt>
      <trkpt lat="45.7233" lon="-1.07331">
        <ele>16.3</ele>
        <time>2020-06-17T07:48:30Z</time>
      </trkpt>
      <trkpt lat="45.72333" lon="-1.07343">
        <ele>17</ele>
        <time>2020-06-17T07:48:39Z</time>
      </trkpt>
      <trkpt lat="45.72334" lon="-1.07356">
        <ele>17.4</ele>
        <time>2020-06-17T07:48:47Z</time>
      </trkpt>
      <trkpt lat="45.7234" lon="-1.07367">
        <ele>18</ele>
        <time>2020-06-17T07:48:56Z</time>
      </trkpt>
      <trkpt lat="45.72347" lon="-1.07376">
        <ele>18.4</ele>
        <time>2020-06-17T07:49:04Z</time>
      </trkpt>
      <trkpt lat="45.72354" lon="-1.07387">
        <ele>18.6</ele>
        <time>2020-06-17T07:49:12Z</time>
      </trkpt>
      <trkpt lat="45.7236" lon="-1.07398">
        <ele>18.8</ele>
        <time>2020-06-17T07:49:21Z</time>
      </trkpt>
      <trkpt lat="45.72365" lon="-1.07409">
        <ele>19</ele>
        <time>2020-06-17T07:49:29Z</time>
      </trkpt>
      <trkpt lat="45.72371" lon="-1.07419">
        <ele>19.1</ele>
        <time>2020-06-17T07:49:36Z</time>
      </trkpt>
      <trkpt lat="45.72375" lon="-1.07431">
        <ele>19.3</ele>
        <time>2020-06-17T07:49:46Z</time>
      </trkpt>
      <trkpt lat="45.72382" lon="-1.07441">
        <ele>19.5</ele>
        <time>2020-06-17T07:49:54Z</time>
      </trkpt>
      <trkpt lat="45.72388" lon="-1.07452">
        <ele>19.6</ele>
        <time>2020-06-17T07:50:01Z</time>
      </trkpt>
      <trkpt lat="45.72392" lon="-1.07463">
        <ele>19.7</ele>
        <time>2020-06-17T07:50:09Z</time>
      </trkpt>
      <trkpt lat="45.72396" lon="-1.07475">
        <ele>19.7</ele>
        <time>2020-06-17T07:50:16Z</time>
      </trkpt>
      <trkpt lat="45.72401" lon="-1.07487">
        <ele>19.6</ele>
        <time>2020-06-17T07:50:23Z</time>
      </trkpt>
      <trkpt lat="45.72406" lon="-1.07498">
        <ele>19.5</ele>
        <time>2020-06-17T07:50:31Z</time>
      </trkpt>
      <trkpt lat="45.7241" lon="-1.07509">
        <ele>18.8</ele>
        <time>2020-06-17T07:50:55Z</time>
      </trkpt>
      <trkpt lat="45.72416" lon="-1.07519">
        <ele>18.5</ele>
        <time>2020-06-17T07:51:55Z</time>
      </trkpt>
      <trkpt lat="45.7242" lon="-1.0753">
        <ele>18.6</ele>
        <time>2020-06-17T07:52:05Z</time>
      </trkpt>
      <trkpt lat="45.72425" lon="-1.07542">
        <ele>19</ele>
        <time>2020-06-17T07:53:05Z</time>
      </trkpt>
      <trkpt lat="45.72429" lon="-1.07554">
        <ele>19.1</ele>
        <time>2020-06-17T07:53:19Z</time>
      </trkpt>
      <trkpt lat="45.72433" lon="-1.07566">
        <ele>19</ele>
        <time>2020-06-17T07:53:30Z</time>
      </trkpt>
      <trkpt lat="45.72438" lon="-1.07576">
        <ele>19</ele>
        <time>2020-06-17T07:53:39Z</time>
      </trkpt>
      <trkpt lat="45.72445" lon="-1.07586">
        <ele>19</ele>
        <time>2020-06-17T07:53:49Z</time>
      </trkpt>
      <trkpt lat="45.72454" lon="-1.07588">
        <ele>19</ele>
        <time>2020-06-17T07:53:58Z</time>
      </trkpt>
      <trkpt lat="45.72463" lon="-1.07587">
        <ele>19.1</ele>
        <time>2020-06-17T07:54:07Z</time>
      </trkpt>
      <trkpt lat="45.72472" lon="-1.07584">
        <ele>19.3</ele>
        <time>2020-06-17T07:54:15Z</time>
      </trkpt>
      <trkpt lat="45.72482" lon="-1.07581">
        <ele>19.3</ele>
        <time>2020-06-17T07:54:23Z</time>
      </trkpt>
      <trkpt lat="45.72492" lon="-1.07579">
        <ele>19.6</ele>
        <time>2020-06-17T07:54:31Z</time>
      </trkpt>
      <trkpt lat="45.72501" lon="-1.0758">
        <ele>19.8</ele>
        <time>2020-06-17T07:54:40Z</time>
      </trkpt>
      <trkpt lat="45.72504" lon="-1.07593">
        <ele>19.9</ele>
        <time>2020-06-17T07:54:49Z</time>
      </trkpt>
      <trkpt lat="45.72509" lon="-1.07604">
        <ele>20</ele>
        <time>2020-06-17T07:54:56Z</time>
      </trkpt>
      <trkpt lat="45.72515" lon="-1.07616">
        <ele>20.2</ele>
        <time>2020-06-17T07:55:05Z</time>
      </trkpt>
      <trkpt lat="45.7252" lon="-1.07628">
        <ele>20.4</ele>
        <time>2020-06-17T07:55:13Z</time>
      </trkpt>
      <trkpt lat="45.72525" lon="-1.0764">
        <ele>20.6</ele>
        <time>2020-06-17T07:55:21Z</time>
      </trkpt>
      <trkpt lat="45.72531" lon="-1.07651">
        <ele>20.7</ele>
        <time>2020-06-17T07:55:29Z</time>
      </trkpt>
      <trkpt lat="45.72537" lon="-1.07662">
        <ele>20.9</ele>
        <time>2020-06-17T07:55:37Z</time>
      </trkpt>
      <trkpt lat="45.72544" lon="-1.07673">
        <ele>21</ele>
        <time>2020-06-17T07:55:45Z</time>
      </trkpt>
      <trkpt lat="45.72551" lon="-1.07682">
        <ele>21.1</ele>
        <time>2020-06-17T07:55:53Z</time>
      </trkpt>
      <trkpt lat="45.72558" lon="-1.07691">
        <ele>21.2</ele>
        <time>2020-06-17T07:56:00Z</time>
      </trkpt>
      <trkpt lat="45.72565" lon="-1.07701">
        <ele>21.2</ele>
        <time>2020-06-17T07:56:08Z</time>
      </trkpt>
      <trkpt lat="45.72573" lon="-1.07709">
        <ele>21.3</ele>
        <time>2020-06-17T07:56:17Z</time>
      </trkpt>
      <trkpt lat="45.72579" lon="-1.07718">
        <ele>21.3</ele>
        <time>2020-06-17T07:56:25Z</time>
      </trkpt>
      <trkpt lat="45.72586" lon="-1.07728">
        <ele>21.4</ele>
        <time>2020-06-17T07:56:33Z</time>
      </trkpt>
      <trkpt lat="45.72592" lon="-1.0774">
        <ele>21.4</ele>
        <time>2020-06-17T07:56:42Z</time>
      </trkpt>
      <trkpt lat="45.72599" lon="-1.07748">
        <ele>21.4</ele>
        <time>2020-06-17T07:56:51Z</time>
      </trkpt>
      <trkpt lat="45.72608" lon="-1.07747">
        <ele>21.5</ele>
        <time>2020-06-17T07:57:01Z</time>
      </trkpt>
      <trkpt lat="45.72617" lon="-1.07742">
        <ele>21.5</ele>
        <time>2020-06-17T07:57:09Z</time>
      </trkpt>
      <trkpt lat="45.72626" lon="-1.07736">
        <ele>21.5</ele>
        <time>2020-06-17T07:57:17Z</time>
      </trkpt>
      <trkpt lat="45.72635" lon="-1.07729">
        <ele>21.6</ele>
        <time>2020-06-17T07:57:26Z</time>
      </trkpt>
      <trkpt lat="45.72644" lon="-1.07722">
        <ele>21.7</ele>
        <time>2020-06-17T07:57:35Z</time>
      </trkpt>
      <trkpt lat="45.72652" lon="-1.07716">
        <ele>21.8</ele>
        <time>2020-06-17T07:57:42Z</time>
      </trkpt>
      <trkpt lat="45.7266" lon="-1.07709">
        <ele>21.9</ele>
        <time>2020-06-17T07:57:51Z</time>
      </trkpt>
      <trkpt lat="45.7267" lon="-1.07705">
        <ele>21.9</ele>
        <time>2020-06-17T07:58:00Z</time>
      </trkpt>
      <trkpt lat="45.7268" lon="-1.07701">
        <ele>22.1</ele>
        <time>2020-06-17T07:58:09Z</time>
      </trkpt>
      <trkpt lat="45.72689" lon="-1.07698">
        <ele>22.2</ele>
        <time>2020-06-17T07:58:15Z</time>
      </trkpt>
      <trkpt lat="45.72698" lon="-1.07695">
        <ele>22.3</ele>
        <time>2020-06-17T07:58:23Z</time>
      </trkpt>
      <trkpt lat="45.72708" lon="-1.07692">
        <ele>22.5</ele>
        <time>2020-06-17T07:58:30Z</time>
      </trkpt>
      <trkpt lat="45.72718" lon="-1.07688">
        <ele>22.7</ele>
        <time>2020-06-17T07:58:40Z</time>
      </trkpt>
      <trkpt lat="45.72727" lon="-1.07689">
        <ele>22.9</ele>
        <time>2020-06-17T07:58:49Z</time>
      </trkpt>
      <trkpt lat="45.72736" lon="-1.0769">
        <ele>23</ele>
        <time>2020-06-17T07:58:55Z</time>
      </trkpt>
      <trkpt lat="45.72745" lon="-1.07692">
        <ele>23.1</ele>
        <time>2020-06-17T07:59:02Z</time>
      </trkpt>
      <trkpt lat="45.72754" lon="-1.07693">
        <ele>23.2</ele>
        <time>2020-06-17T07:59:09Z</time>
      </trkpt>
      <trkpt lat="45.72763" lon="-1.07692">
        <ele>23.2</ele>
        <time>2020-06-17T07:59:13Z</time>
      </trkpt>
      <trkpt lat="45.72773" lon="-1.07693">
        <ele>23.2</ele>
        <time>2020-06-17T07:59:21Z</time>
      </trkpt>
      <trkpt lat="45.72783" lon="-1.07691">
        <ele>23.3</ele>
        <time>2020-06-17T07:59:29Z</time>
      </trkpt>
      <trkpt lat="45.72793" lon="-1.07694">
        <ele>23.3</ele>
        <time>2020-06-17T07:59:37Z</time>
      </trkpt>
      <trkpt lat="45.72802" lon="-1.07696">
        <ele>23.3</ele>
        <time>2020-06-17T07:59:45Z</time>
      </trkpt>
      <trkpt lat="45.72811" lon="-1.07698">
        <ele>23.3</ele>
        <time>2020-06-17T07:59:53Z</time>
      </trkpt>
      <trkpt lat="45.7282" lon="-1.07704">
        <ele>23.3</ele>
        <time>2020-06-17T08:00:01Z</time>
      </trkpt>
      <trkpt lat="45.7283" lon="-1.07708">
        <ele>23.3</ele>
        <time>2020-06-17T08:00:09Z</time>
      </trkpt>
      <trkpt lat="45.7284" lon="-1.07707">
        <ele>23.4</ele>
        <time>2020-06-17T08:00:17Z</time>
      </trkpt>
      <trkpt lat="45.7285" lon="-1.07704">
        <ele>23.4</ele>
        <time>2020-06-17T08:00:25Z</time>
      </trkpt>
      <trkpt lat="45.72858" lon="-1.077">
        <ele>23.5</ele>
        <time>2020-06-17T08:00:33Z</time>
      </trkpt>
      <trkpt lat="45.72866" lon="-1.07692">
        <ele>23.5</ele>
        <time>2020-06-17T08:00:41Z</time>
      </trkpt>
      <trkpt lat="45.72874" lon="-1.07685">
        <ele>23.5</ele>
        <time>2020-06-17T08:00:48Z</time>
      </trkpt>
      <trkpt lat="45.72882" lon="-1.07677">
        <ele>23.6</ele>
        <time>2020-06-17T08:00:56Z</time>
      </trkpt>
      <trkpt lat="45.7289" lon="-1.07671">
        <ele>23.5</ele>
        <time>2020-06-17T08:01:03Z</time>
      </trkpt>
      <trkpt lat="45.72899" lon="-1.07667">
        <ele>23.5</ele>
        <time>2020-06-17T08:01:11Z</time>
      </trkpt>
      <trkpt lat="45.72906" lon="-1.07675">
        <ele>23.5</ele>
        <time>2020-06-17T08:01:20Z</time>
      </trkpt>
      <trkpt lat="45.72916" lon="-1.07678">
        <ele>23.5</ele>
        <time>2020-06-17T08:01:29Z</time>
      </trkpt>
      <trkpt lat="45.72925" lon="-1.07683">
        <ele>23.5</ele>
        <time>2020-06-17T08:01:37Z</time>
      </trkpt>
      <trkpt lat="45.72933" lon="-1.07688">
        <ele>23.6</ele>
        <time>2020-06-17T08:01:45Z</time>
      </trkpt>
      <trkpt lat="45.72941" lon="-1.07695">
        <ele>23.7</ele>
        <time>2020-06-17T08:01:52Z</time>
      </trkpt>
      <trkpt lat="45.72948" lon="-1.07704">
        <ele>23.7</ele>
        <time>2020-06-17T08:02:01Z</time>
      </trkpt>
      <trkpt lat="45.72954" lon="-1.07715">
        <ele>23.8</ele>
        <time>2020-06-17T08:02:10Z</time>
      </trkpt>
      <trkpt lat="45.72961" lon="-1.07724">
        <ele>23.8</ele>
        <time>2020-06-17T08:02:18Z</time>
      </trkpt>
      <trkpt lat="45.72969" lon="-1.07733">
        <ele>23.8</ele>
        <time>2020-06-17T08:02:26Z</time>
      </trkpt>
      <trkpt lat="45.72975" lon="-1.07743">
        <ele>23.8</ele>
        <time>2020-06-17T08:02:34Z</time>
      </trkpt>
      <trkpt lat="45.72981" lon="-1.07753">
        <ele>23.8</ele>
        <time>2020-06-17T08:02:41Z</time>
      </trkpt>
      <trkpt lat="45.72988" lon="-1.07763">
        <ele>23.8</ele>
        <time>2020-06-17T08:02:49Z</time>
      </trkpt>
      <trkpt lat="45.72994" lon="-1.07775">
        <ele>23.7</ele>
        <time>2020-06-17T08:03:01Z</time>
      </trkpt>
      <trkpt lat="45.73001" lon="-1.07784">
        <ele>23.7</ele>
        <time>2020-06-17T08:03:09Z</time>
      </trkpt>
      <trkpt lat="45.73007" lon="-1.07796">
        <ele>23.6</ele>
        <time>2020-06-17T08:03:16Z</time>
      </trkpt>
      <trkpt lat="45.73013" lon="-1.07807">
        <ele>23.6</ele>
        <time>2020-06-17T08:03:24Z</time>
      </trkpt>
      <trkpt lat="45.7302" lon="-1.07816">
        <ele>23.5</ele>
        <time>2020-06-17T08:03:32Z</time>
      </trkpt>
      <trkpt lat="45.73026" lon="-1.07827">
        <ele>23.5</ele>
        <time>2020-06-17T08:03:39Z</time>
      </trkpt>
      <trkpt lat="45.73032" lon="-1.07837">
        <ele>23.4</ele>
        <time>2020-06-17T08:03:46Z</time>
      </trkpt>
      <trkpt lat="45.73039" lon="-1.07847">
        <ele>23.4</ele>
        <time>2020-06-17T08:03:54Z</time>
      </trkpt>
      <trkpt lat="45.73045" lon="-1.07858">
        <ele>23.3</ele>
        <time>2020-06-17T08:04:00Z</time>
      </trkpt>
      <trkpt lat="45.73052" lon="-1.07866">
        <ele>23.2</ele>
        <time>2020-06-17T08:04:07Z</time>
      </trkpt>
      <trkpt lat="45.73059" lon="-1.07876">
        <ele>23.1</ele>
        <time>2020-06-17T08:04:20Z</time>
      </trkpt>
      <trkpt lat="45.73066" lon="-1.07885">
        <ele>22.1</ele>
        <time>2020-06-17T08:07:29Z</time>
      </trkpt>
      <trkpt lat="45.73076" lon="-1.07887">
        <ele>22.2</ele>
        <time>2020-06-17T08:07:42Z</time>
      </trkpt>
      <trkpt lat="45.73083" lon="-1.07895">
        <ele>22.2</ele>
        <time>2020-06-17T08:07:51Z</time>
      </trkpt>
      <trkpt lat="45.73093" lon="-1.07899">
        <ele>22.2</ele>
        <time>2020-06-17T08:08:11Z</time>
      </trkpt>
      <trkpt lat="45.73101" lon="-1.07903">
        <ele>22.3</ele>
        <time>2020-06-17T08:08:26Z</time>
      </trkpt>
      <trkpt lat="45.73111" lon="-1.07907">
        <ele>22.3</ele>
        <time>2020-06-17T08:08:37Z</time>
      </trkpt>
      <trkpt lat="45.73119" lon="-1.07914">
        <ele>22.3</ele>
        <time>2020-06-17T08:08:53Z</time>
      </trkpt>
      <trkpt lat="45.73128" lon="-1.0792">
        <ele>22.6</ele>
        <time>2020-06-17T08:09:04Z</time>
      </trkpt>
      <trkpt lat="45.73137" lon="-1.07926">
        <ele>22.7</ele>
        <time>2020-06-17T08:09:12Z</time>
      </trkpt>
      <trkpt lat="45.73143" lon="-1.07937">
        <ele>22.8</ele>
        <time>2020-06-17T08:09:20Z</time>
      </trkpt>
      <trkpt lat="45.7315" lon="-1.07947">
        <ele>22.9</ele>
        <time>2020-06-17T08:09:26Z</time>
      </trkpt>
      <trkpt lat="45.73154" lon="-1.0796">
        <ele>22.9</ele>
        <time>2020-06-17T08:09:36Z</time>
      </trkpt>
      <trkpt lat="45.73157" lon="-1.07972">
        <ele>22.9</ele>
        <time>2020-06-17T08:09:44Z</time>
      </trkpt>
      <trkpt lat="45.73163" lon="-1.07983">
        <ele>23</ele>
        <time>2020-06-17T08:09:52Z</time>
      </trkpt>
      <trkpt lat="45.73169" lon="-1.07996">
        <ele>23</ele>
        <time>2020-06-17T08:10:01Z</time>
      </trkpt>
      <trkpt lat="45.73175" lon="-1.08007">
        <ele>23.1</ele>
        <time>2020-06-17T08:10:09Z</time>
      </trkpt>
      <trkpt lat="45.7318" lon="-1.08021">
        <ele>23.3</ele>
        <time>2020-06-17T08:10:19Z</time>
      </trkpt>
      <trkpt lat="45.73184" lon="-1.08033">
        <ele>23.5</ele>
        <time>2020-06-17T08:10:27Z</time>
      </trkpt>
      <trkpt lat="45.7319" lon="-1.08043">
        <ele>23.6</ele>
        <time>2020-06-17T08:10:34Z</time>
      </trkpt>
      <trkpt lat="45.73195" lon="-1.08055">
        <ele>23.7</ele>
        <time>2020-06-17T08:10:44Z</time>
      </trkpt>
      <trkpt lat="45.73201" lon="-1.08066">
        <ele>23.8</ele>
        <time>2020-06-17T08:10:51Z</time>
      </trkpt>
      <trkpt lat="45.73212" lon="-1.08074">
        <ele>23.8</ele>
        <time>2020-06-17T08:10:57Z</time>
      </trkpt>
      <trkpt lat="45.73221" lon="-1.08076">
        <ele>24.1</ele>
        <time>2020-06-17T08:11:07Z</time>
      </trkpt>
      <trkpt lat="45.7323" lon="-1.0808">
        <ele>24.3</ele>
        <time>2020-06-17T08:11:17Z</time>
      </trkpt>
      <trkpt lat="45.7324" lon="-1.08083">
        <ele>24.4</ele>
        <time>2020-06-17T08:11:25Z</time>
      </trkpt>
      <trkpt lat="45.73249" lon="-1.08087">
        <ele>24.6</ele>
        <time>2020-06-17T08:11:33Z</time>
      </trkpt>
      <trkpt lat="45.73258" lon="-1.0809">
        <ele>24.6</ele>
        <time>2020-06-17T08:11:41Z</time>
      </trkpt>
      <trkpt lat="45.73268" lon="-1.08093">
        <ele>24.7</ele>
        <time>2020-06-17T08:11:49Z</time>
      </trkpt>
      <trkpt lat="45.73277" lon="-1.08091">
        <ele>25</ele>
        <time>2020-06-17T08:11:59Z</time>
      </trkpt>
      <trkpt lat="45.73285" lon="-1.08082">
        <ele>25.2</ele>
        <time>2020-06-17T08:12:09Z</time>
      </trkpt>
      <trkpt lat="45.73293" lon="-1.08076">
        <ele>25.2</ele>
        <time>2020-06-17T08:12:16Z</time>
      </trkpt>
      <trkpt lat="45.733" lon="-1.08066">
        <ele>25.2</ele>
        <time>2020-06-17T08:12:24Z</time>
      </trkpt>
      <trkpt lat="45.73309" lon="-1.08062">
        <ele>25.2</ele>
        <time>2020-06-17T08:12:32Z</time>
      </trkpt>
      <trkpt lat="45.73318" lon="-1.08058">
        <ele>25.2</ele>
        <time>2020-06-17T08:12:40Z</time>
      </trkpt>
      <trkpt lat="45.73326" lon="-1.08052">
        <ele>25.1</ele>
        <time>2020-06-17T08:12:48Z</time>
      </trkpt>
      <trkpt lat="45.73336" lon="-1.0805">
        <ele>25</ele>
        <time>2020-06-17T08:12:55Z</time>
      </trkpt>
      <trkpt lat="45.73345" lon="-1.08047">
        <ele>24.8</ele>
        <time>2020-06-17T08:13:06Z</time>
      </trkpt>
      <trkpt lat="45.73354" lon="-1.08046">
        <ele>24.7</ele>
        <time>2020-06-17T08:13:15Z</time>
      </trkpt>
      <trkpt lat="45.73364" lon="-1.08042">
        <ele>24.6</ele>
        <time>2020-06-17T08:13:23Z</time>
      </trkpt>
      <trkpt lat="45.73371" lon="-1.08033">
        <ele>24.4</ele>
        <time>2020-06-17T08:13:29Z</time>
      </trkpt>
      <trkpt lat="45.73375" lon="-1.08021">
        <ele>24.2</ele>
        <time>2020-06-17T08:13:38Z</time>
      </trkpt>
      <trkpt lat="45.73373" lon="-1.08007">
        <ele>24</ele>
        <time>2020-06-17T08:13:45Z</time>
      </trkpt>
      <trkpt lat="45.7337" lon="-1.07995">
        <ele>23.9</ele>
        <time>2020-06-17T08:13:51Z</time>
      </trkpt>
      <trkpt lat="45.73369" lon="-1.07982">
        <ele>23.7</ele>
        <time>2020-06-17T08:13:58Z</time>
      </trkpt>
      <trkpt lat="45.73367" lon="-1.07968">
        <ele>23.5</ele>
        <time>2020-06-17T08:14:07Z</time>
      </trkpt>
      <trkpt lat="45.73367" lon="-1.07955">
        <ele>23.3</ele>
        <time>2020-06-17T08:14:14Z</time>
      </trkpt>
      <trkpt lat="45.73367" lon="-1.07941">
        <ele>23.1</ele>
        <time>2020-06-17T08:14:23Z</time>
      </trkpt>
      <trkpt lat="45.73365" lon="-1.07928">
        <ele>23</ele>
        <time>2020-06-17T08:14:30Z</time>
      </trkpt>
      <trkpt lat="45.73366" lon="-1.07914">
        <ele>22.9</ele>
        <time>2020-06-17T08:14:38Z</time>
      </trkpt>
      <trkpt lat="45.73364" lon="-1.07901">
        <ele>22.7</ele>
        <time>2020-06-17T08:14:46Z</time>
      </trkpt>
      <trkpt lat="45.73365" lon="-1.07888">
        <ele>22.6</ele>
        <time>2020-06-17T08:14:52Z</time>
      </trkpt>
      <trkpt lat="45.73364" lon="-1.07874">
        <ele>22.5</ele>
        <time>2020-06-17T08:15:00Z</time>
      </trkpt>
      <trkpt lat="45.73362" lon="-1.0786">
        <ele>22.5</ele>
        <time>2020-06-17T08:15:09Z</time>
      </trkpt>
      <trkpt lat="45.73362" lon="-1.07846">
        <ele>22.4</ele>
        <time>2020-06-17T08:15:19Z</time>
      </trkpt>
      <trkpt lat="45.73361" lon="-1.07833">
        <ele>22.1</ele>
        <time>2020-06-17T08:15:26Z</time>
      </trkpt>
      <trkpt lat="45.73369" lon="-1.07826">
        <ele>21.9</ele>
        <time>2020-06-17T08:15:35Z</time>
      </trkpt>
      <trkpt lat="45.73378" lon="-1.07826">
        <ele>21.8</ele>
        <time>2020-06-17T08:15:44Z</time>
      </trkpt>
      <trkpt lat="45.73388" lon="-1.07827">
        <ele>21.7</ele>
        <time>2020-06-17T08:15:53Z</time>
      </trkpt>
      <trkpt lat="45.73398" lon="-1.07831">
        <ele>21.4</ele>
        <time>2020-06-17T08:16:02Z</time>
      </trkpt>
      <trkpt lat="45.73408" lon="-1.07834">
        <ele>21.2</ele>
        <time>2020-06-17T08:16:09Z</time>
      </trkpt>
      <trkpt lat="45.73418" lon="-1.07837">
        <ele>20.8</ele>
        <time>2020-06-17T08:16:18Z</time>
      </trkpt>
      <trkpt lat="45.73427" lon="-1.07841">
        <ele>20.2</ele>
        <time>2020-06-17T08:16:28Z</time>
      </trkpt>
      <trkpt lat="45.73436" lon="-1.07844">
        <ele>19.8</ele>
        <time>2020-06-17T08:16:35Z</time>
      </trkpt>
      <trkpt lat="45.73445" lon="-1.07848">
        <ele>19.3</ele>
        <time>2020-06-17T08:16:41Z</time>
      </trkpt>
      <trkpt lat="45.73455" lon="-1.07854">
        <ele>18.6</ele>
        <time>2020-06-17T08:16:49Z</time>
      </trkpt>
      <trkpt lat="45.73464" lon="-1.07861">
        <ele>18.2</ele>
        <time>2020-06-17T08:16:56Z</time>
      </trkpt>
      <trkpt lat="45.73473" lon="-1.07868">
        <ele>17.9</ele>
        <time>2020-06-17T08:17:03Z</time>
      </trkpt>
      <trkpt lat="45.73481" lon="-1.07876">
        <ele>17.7</ele>
        <time>2020-06-17T08:17:10Z</time>
      </trkpt>
      <trkpt lat="45.73489" lon="-1.07884">
        <ele>17.5</ele>
        <time>2020-06-17T08:17:18Z</time>
      </trkpt>
      <trkpt lat="45.73496" lon="-1.07894">
        <ele>17.4</ele>
        <time>2020-06-17T08:17:26Z</time>
      </trkpt>
      <trkpt lat="45.73502" lon="-1.07904">
        <ele>17.4</ele>
        <time>2020-06-17T08:17:34Z</time>
      </trkpt>
      <trkpt lat="45.7351" lon="-1.07912">
        <ele>17.4</ele>
        <time>2020-06-17T08:17:42Z</time>
      </trkpt>
      <trkpt lat="45.73518" lon="-1.07921">
        <ele>17.4</ele>
        <time>2020-06-17T08:17:51Z</time>
      </trkpt>
      <trkpt lat="45.73528" lon="-1.07925">
        <ele>17.5</ele>
        <time>2020-06-17T08:18:01Z</time>
      </trkpt>
      <trkpt lat="45.73538" lon="-1.07927">
        <ele>17.8</ele>
        <time>2020-06-17T08:18:09Z</time>
      </trkpt>
      <trkpt lat="45.73547" lon="-1.0793">
        <ele>17.9</ele>
        <time>2020-06-17T08:18:17Z</time>
      </trkpt>
      <trkpt lat="45.73557" lon="-1.07932">
        <ele>18</ele>
        <time>2020-06-17T08:18:25Z</time>
      </trkpt>
      <trkpt lat="45.73566" lon="-1.07936">
        <ele>18.2</ele>
        <time>2020-06-17T08:18:33Z</time>
      </trkpt>
      <trkpt lat="45.73575" lon="-1.0794">
        <ele>18.6</ele>
        <time>2020-06-17T08:18:42Z</time>
      </trkpt>
      <trkpt lat="45.73584" lon="-1.07945">
        <ele>18.8</ele>
        <time>2020-06-17T08:18:50Z</time>
      </trkpt>
      <trkpt lat="45.73593" lon="-1.07951">
        <ele>19</ele>
        <time>2020-06-17T08:18:58Z</time>
      </trkpt>
      <trkpt lat="45.73602" lon="-1.07956">
        <ele>19.8</ele>
        <time>2020-06-17T08:19:16Z</time>
      </trkpt>
      <trkpt lat="45.73611" lon="-1.0796">
        <ele>20.2</ele>
        <time>2020-06-17T08:19:25Z</time>
      </trkpt>
      <trkpt lat="45.7362" lon="-1.07958">
        <ele>20.5</ele>
        <time>2020-06-17T08:19:33Z</time>
      </trkpt>
      <trkpt lat="45.73628" lon="-1.07952">
        <ele>20.6</ele>
        <time>2020-06-17T08:19:41Z</time>
      </trkpt>
      <trkpt lat="45.73636" lon="-1.07946">
        <ele>20.7</ele>
        <time>2020-06-17T08:19:49Z</time>
      </trkpt>
      <trkpt lat="45.73646" lon="-1.0794">
        <ele>20.7</ele>
        <time>2020-06-17T08:19:57Z</time>
      </trkpt>
      <trkpt lat="45.73654" lon="-1.07934">
        <ele>20.7</ele>
        <time>2020-06-17T08:20:05Z</time>
      </trkpt>
      <trkpt lat="45.73663" lon="-1.07927">
        <ele>20.8</ele>
        <time>2020-06-17T08:20:13Z</time>
      </trkpt>
      <trkpt lat="45.73671" lon="-1.0792">
        <ele>20.8</ele>
        <time>2020-06-17T08:20:21Z</time>
      </trkpt>
      <trkpt lat="45.73679" lon="-1.07914">
        <ele>20.9</ele>
        <time>2020-06-17T08:20:28Z</time>
      </trkpt>
      <trkpt lat="45.73688" lon="-1.07908">
        <ele>21.1</ele>
        <time>2020-06-17T08:20:36Z</time>
      </trkpt>
      <trkpt lat="45.73696" lon="-1.079">
        <ele>21.2</ele>
        <time>2020-06-17T08:20:44Z</time>
      </trkpt>
      <trkpt lat="45.73704" lon="-1.07894">
        <ele>21.2</ele>
        <time>2020-06-17T08:20:52Z</time>
      </trkpt>
      <trkpt lat="45.73713" lon="-1.07886">
        <ele>21.1</ele>
        <time>2020-06-17T08:21:01Z</time>
      </trkpt>
      <trkpt lat="45.73721" lon="-1.0788">
        <ele>20.9</ele>
        <time>2020-06-17T08:21:09Z</time>
      </trkpt>
      <trkpt lat="45.7373" lon="-1.07875">
        <ele>20.8</ele>
        <time>2020-06-17T08:21:16Z</time>
      </trkpt>
      <trkpt lat="45.73738" lon="-1.07882">
        <ele>20.6</ele>
        <time>2020-06-17T08:21:29Z</time>
      </trkpt>
      <trkpt lat="45.73743" lon="-1.07893">
        <ele>20.4</ele>
        <time>2020-06-17T08:21:40Z</time>
      </trkpt>
      <trkpt lat="45.7375" lon="-1.07903">
        <ele>20.3</ele>
        <time>2020-06-17T08:21:53Z</time>
      </trkpt>
      <trkpt lat="45.73757" lon="-1.07913">
        <ele>20.3</ele>
        <time>2020-06-17T08:22:01Z</time>
      </trkpt>
      <trkpt lat="45.73761" lon="-1.07925">
        <ele>20.3</ele>
        <time>2020-06-17T08:22:11Z</time>
      </trkpt>
      <trkpt lat="45.73768" lon="-1.07935">
        <ele>20.3</ele>
        <time>2020-06-17T08:22:18Z</time>
      </trkpt>
      <trkpt lat="45.73773" lon="-1.07947">
        <ele>20.1</ele>
        <time>2020-06-17T08:22:26Z</time>
      </trkpt>
      <trkpt lat="45.7378" lon="-1.07956">
        <ele>19.9</ele>
        <time>2020-06-17T08:22:33Z</time>
      </trkpt>
      <trkpt lat="45.73786" lon="-1.07967">
        <ele>19.8</ele>
        <time>2020-06-17T08:22:40Z</time>
      </trkpt>
      <trkpt lat="45.73792" lon="-1.07977">
        <ele>19.5</ele>
        <time>2020-06-17T08:22:49Z</time>
      </trkpt>
      <trkpt lat="45.73797" lon="-1.07989">
        <ele>19.2</ele>
        <time>2020-06-17T08:22:58Z</time>
      </trkpt>
      <trkpt lat="45.73802" lon="-1.08002">
        <ele>18.9</ele>
        <time>2020-06-17T08:23:07Z</time>
      </trkpt>
      <trkpt lat="45.73808" lon="-1.08014">
        <ele>18.5</ele>
        <time>2020-06-17T08:23:15Z</time>
      </trkpt>
      <trkpt lat="45.73814" lon="-1.08004">
        <ele>18.2</ele>
        <time>2020-06-17T08:23:35Z</time>
      </trkpt>
      <trkpt lat="45.73821" lon="-1.07996">
        <ele>17.8</ele>
        <time>2020-06-17T08:23:57Z</time>
      </trkpt>
      <trkpt lat="45.73829" lon="-1.07989">
        <ele>17.5</ele>
        <time>2020-06-17T08:24:04Z</time>
      </trkpt>
      <trkpt lat="45.73837" lon="-1.07982">
        <ele>17.3</ele>
        <time>2020-06-17T08:24:13Z</time>
      </trkpt>
      <trkpt lat="45.73846" lon="-1.07976">
        <ele>17</ele>
        <time>2020-06-17T08:24:23Z</time>
      </trkpt>
      <trkpt lat="45.73854" lon="-1.07969">
        <ele>16.7</ele>
        <time>2020-06-17T08:24:31Z</time>
      </trkpt>
      <trkpt lat="45.73863" lon="-1.07962">
        <ele>16.6</ele>
        <time>2020-06-17T08:24:39Z</time>
      </trkpt>
      <trkpt lat="45.7387" lon="-1.07955">
        <ele>16.5</ele>
        <time>2020-06-17T08:24:47Z</time>
      </trkpt>
      <trkpt lat="45.73878" lon="-1.07948">
        <ele>16.5</ele>
        <time>2020-06-17T08:24:55Z</time>
      </trkpt>
      <trkpt lat="45.73886" lon="-1.07941">
        <ele>16.4</ele>
        <time>2020-06-17T08:25:03Z</time>
      </trkpt>
      <trkpt lat="45.73895" lon="-1.07934">
        <ele>16.3</ele>
        <time>2020-06-17T08:25:12Z</time>
      </trkpt>
      <trkpt lat="45.73903" lon="-1.07927">
        <ele>16.3</ele>
        <time>2020-06-17T08:25:20Z</time>
      </trkpt>
      <trkpt lat="45.73911" lon="-1.07921">
        <ele>16.3</ele>
        <time>2020-06-17T08:25:28Z</time>
      </trkpt>
      <trkpt lat="45.73919" lon="-1.07913">
        <ele>16.3</ele>
        <time>2020-06-17T08:25:37Z</time>
      </trkpt>
      <trkpt lat="45.73927" lon="-1.07906">
        <ele>16.2</ele>
        <time>2020-06-17T08:25:45Z</time>
      </trkpt>
      <trkpt lat="45.73935" lon="-1.079">
        <ele>16.1</ele>
        <time>2020-06-17T08:25:53Z</time>
      </trkpt>
      <trkpt lat="45.73943" lon="-1.07894">
        <ele>16</ele>
        <time>2020-06-17T08:26:01Z</time>
      </trkpt>
      <trkpt lat="45.73952" lon="-1.07888">
        <ele>15.9</ele>
        <time>2020-06-17T08:26:09Z</time>
      </trkpt>
      <trkpt lat="45.7396" lon="-1.07881">
        <ele>15.9</ele>
        <time>2020-06-17T08:26:17Z</time>
      </trkpt>
      <trkpt lat="45.73969" lon="-1.07875">
        <ele>15.7</ele>
        <time>2020-06-17T08:26:26Z</time>
      </trkpt>
      <trkpt lat="45.73976" lon="-1.07882">
        <ele>15.3</ele>
        <time>2020-06-17T08:26:36Z</time>
      </trkpt>
      <trkpt lat="45.73982" lon="-1.07894">
        <ele>14.8</ele>
        <time>2020-06-17T08:26:45Z</time>
      </trkpt>
      <trkpt lat="45.73988" lon="-1.07905">
        <ele>14.3</ele>
        <time>2020-06-17T08:26:53Z</time>
      </trkpt>
      <trkpt lat="45.73993" lon="-1.07917">
        <ele>13.9</ele>
        <time>2020-06-17T08:27:01Z</time>
      </trkpt>
      <trkpt lat="45.73999" lon="-1.07928">
        <ele>13.7</ele>
        <time>2020-06-17T08:27:09Z</time>
      </trkpt>
      <trkpt lat="45.74004" lon="-1.0794">
        <ele>13.3</ele>
        <time>2020-06-17T08:27:17Z</time>
      </trkpt>
      <trkpt lat="45.7401" lon="-1.07951">
        <ele>12.9</ele>
        <time>2020-06-17T08:27:25Z</time>
      </trkpt>
      <trkpt lat="45.74016" lon="-1.07963">
        <ele>12.4</ele>
        <time>2020-06-17T08:27:33Z</time>
      </trkpt>
      <trkpt lat="45.74021" lon="-1.07974">
        <ele>11.7</ele>
        <time>2020-06-17T08:27:41Z</time>
      </trkpt>
      <trkpt lat="45.74027" lon="-1.07986">
        <ele>11.1</ele>
        <time>2020-06-17T08:27:49Z</time>
      </trkpt>
      <trkpt lat="45.74032" lon="-1.07998">
        <ele>10.6</ele>
        <time>2020-06-17T08:27:57Z</time>
      </trkpt>
      <trkpt lat="45.74038" lon="-1.0801">
        <ele>10.2</ele>
        <time>2020-06-17T08:28:05Z</time>
      </trkpt>
      <trkpt lat="45.74043" lon="-1.08021">
        <ele>9.8</ele>
        <time>2020-06-17T08:28:12Z</time>
      </trkpt>
      <trkpt lat="45.74049" lon="-1.08033">
        <ele>9.4</ele>
        <time>2020-06-17T08:28:20Z</time>
      </trkpt>
      <trkpt lat="45.74054" lon="-1.08044">
        <ele>9.1</ele>
        <time>2020-06-17T08:28:28Z</time>
      </trkpt>
      <trkpt lat="45.74059" lon="-1.08056">
        <ele>8.8</ele>
        <time>2020-06-17T08:28:36Z</time>
      </trkpt>
      <trkpt lat="45.74065" lon="-1.08067">
        <ele>8.3</ele>
        <time>2020-06-17T08:28:44Z</time>
      </trkpt>
      <trkpt lat="45.7407" lon="-1.08079">
        <ele>8</ele>
        <time>2020-06-17T08:28:52Z</time>
      </trkpt>
      <trkpt lat="45.74075" lon="-1.08091">
        <ele>7.6</ele>
        <time>2020-06-17T08:29:00Z</time>
      </trkpt>
      <trkpt lat="45.74081" lon="-1.08103">
        <ele>7.4</ele>
        <time>2020-06-17T08:29:08Z</time>
      </trkpt>
      <trkpt lat="45.74086" lon="-1.08115">
        <ele>7.2</ele>
        <time>2020-06-17T08:29:16Z</time>
      </trkpt>
      <trkpt lat="45.74091" lon="-1.08127">
        <ele>7</ele>
        <time>2020-06-17T08:29:24Z</time>
      </trkpt>
      <trkpt lat="45.74097" lon="-1.08139">
        <ele>6.9</ele>
        <time>2020-06-17T08:29:32Z</time>
      </trkpt>
      <trkpt lat="45.74102" lon="-1.08151">
        <ele>6.4</ele>
        <time>2020-06-17T08:29:40Z</time>
      </trkpt>
      <trkpt lat="45.74108" lon="-1.08163">
        <ele>5.7</ele>
        <time>2020-06-17T08:30:00Z</time>
      </trkpt>
      <trkpt lat="45.74113" lon="-1.08175">
        <ele>5.6</ele>
        <time>2020-06-17T08:30:08Z</time>
      </trkpt>
      <trkpt lat="45.74118" lon="-1.08186">
        <ele>5.5</ele>
        <time>2020-06-17T08:30:16Z</time>
      </trkpt>
      <trkpt lat="45.74122" lon="-1.08198">
        <ele>5.5</ele>
        <time>2020-06-17T08:30:24Z</time>
      </trkpt>
      <trkpt lat="45.74128" lon="-1.0821">
        <ele>5.2</ele>
        <time>2020-06-17T08:30:33Z</time>
      </trkpt>
      <trkpt lat="45.74133" lon="-1.08221">
        <ele>5.1</ele>
        <time>2020-06-17T08:30:40Z</time>
      </trkpt>
      <trkpt lat="45.74138" lon="-1.08234">
        <ele>4.8</ele>
        <time>2020-06-17T08:30:48Z</time>
      </trkpt>
      <trkpt lat="45.74144" lon="-1.08244">
        <ele>4.6</ele>
        <time>2020-06-17T08:30:55Z</time>
      </trkpt>
      <trkpt lat="45.74149" lon="-1.08256">
        <ele>4.5</ele>
        <time>2020-06-17T08:31:03Z</time>
      </trkpt>
      <trkpt lat="45.74155" lon="-1.08267">
        <ele>4.4</ele>
        <time>2020-06-17T08:31:10Z</time>
      </trkpt>
      <trkpt lat="45.74159" lon="-1.08279">
        <ele>4.3</ele>
        <time>2020-06-17T08:31:18Z</time>
      </trkpt>
      <trkpt lat="45.74165" lon="-1.0829">
        <ele>4.2</ele>
        <time>2020-06-17T08:31:25Z</time>
      </trkpt>
      <trkpt lat="45.74171" lon="-1.083">
        <ele>4.2</ele>
        <time>2020-06-17T08:31:33Z</time>
      </trkpt>
      <trkpt lat="45.74175" lon="-1.08313">
        <ele>4.1</ele>
        <time>2020-06-17T08:31:41Z</time>
      </trkpt>
      <trkpt lat="45.74181" lon="-1.08325">
        <ele>4.2</ele>
        <time>2020-06-17T08:31:49Z</time>
      </trkpt>
      <trkpt lat="45.74186" lon="-1.08336">
        <ele>4.1</ele>
        <time>2020-06-17T08:31:56Z</time>
      </trkpt>
      <trkpt lat="45.74192" lon="-1.08347">
        <ele>4</ele>
        <time>2020-06-17T08:32:03Z</time>
      </trkpt>
      <trkpt lat="45.74197" lon="-1.08358">
        <ele>3.9</ele>
        <time>2020-06-17T08:32:10Z</time>
      </trkpt>
      <trkpt lat="45.74203" lon="-1.08368">
        <ele>3.9</ele>
        <time>2020-06-17T08:32:18Z</time>
      </trkpt>
      <trkpt lat="45.74209" lon="-1.08381">
        <ele>3.5</ele>
        <time>2020-06-17T08:32:26Z</time>
      </trkpt>
      <trkpt lat="45.74214" lon="-1.08392">
        <ele>3.2</ele>
        <time>2020-06-17T08:32:33Z</time>
      </trkpt>
      <trkpt lat="45.74219" lon="-1.08403">
        <ele>3.1</ele>
        <time>2020-06-17T08:32:40Z</time>
      </trkpt>
      <trkpt lat="45.74225" lon="-1.08413">
        <ele>3</ele>
        <time>2020-06-17T08:32:48Z</time>
      </trkpt>
      <trkpt lat="45.74231" lon="-1.08425">
        <ele>2.5</ele>
        <time>2020-06-17T08:32:56Z</time>
      </trkpt>
      <trkpt lat="45.74237" lon="-1.08436">
        <ele>2.4</ele>
        <time>2020-06-17T08:33:04Z</time>
      </trkpt>
      <trkpt lat="45.74244" lon="-1.08445">
        <ele>2.7</ele>
        <time>2020-06-17T08:33:12Z</time>
      </trkpt>
      <trkpt lat="45.74253" lon="-1.08443">
        <ele>2.5</ele>
        <time>2020-06-17T08:33:20Z</time>
      </trkpt>
      <trkpt lat="45.74262" lon="-1.0844">
        <ele>2.3</ele>
        <time>2020-06-17T08:33:28Z</time>
      </trkpt>
      <trkpt lat="45.74272" lon="-1.08437">
        <ele>2.1</ele>
        <time>2020-06-17T08:33:36Z</time>
      </trkpt>
      <trkpt lat="45.74282" lon="-1.08435">
        <ele>2.1</ele>
        <time>2020-06-17T08:33:44Z</time>
      </trkpt>
      <trkpt lat="45.74291" lon="-1.08432">
        <ele>2</ele>
        <time>2020-06-17T08:33:53Z</time>
      </trkpt>
      <trkpt lat="45.74301" lon="-1.08429">
        <ele>2</ele>
        <time>2020-06-17T08:34:01Z</time>
      </trkpt>
      <trkpt lat="45.7431" lon="-1.08427">
        <ele>2</ele>
        <time>2020-06-17T08:34:08Z</time>
      </trkpt>
      <trkpt lat="45.74319" lon="-1.08424">
        <ele>2</ele>
        <time>2020-06-17T08:34:15Z</time>
      </trkpt>
      <trkpt lat="45.74328" lon="-1.08421">
        <ele>2</ele>
        <time>2020-06-17T08:34:22Z</time>
      </trkpt>
      <trkpt lat="45.74337" lon="-1.08419">
        <ele>2</ele>
        <time>2020-06-17T08:34:29Z</time>
      </trkpt>
      <trkpt lat="45.74347" lon="-1.08416">
        <ele>1.8</ele>
        <time>2020-06-17T08:34:37Z</time>
      </trkpt>
      <trkpt lat="45.74357" lon="-1.08414">
        <ele>1.5</ele>
        <time>2020-06-17T08:34:45Z</time>
      </trkpt>
      <trkpt lat="45.74366" lon="-1.08411">
        <ele>1.4</ele>
        <time>2020-06-17T08:34:52Z</time>
      </trkpt>
      <trkpt lat="45.74375" lon="-1.08407">
        <ele>1.2</ele>
        <time>2020-06-17T08:35:00Z</time>
      </trkpt>
      <trkpt lat="45.74385" lon="-1.08405">
        <ele>1</ele>
        <time>2020-06-17T08:35:08Z</time>
      </trkpt>
      <trkpt lat="45.74394" lon="-1.08403">
        <ele>0.9</ele>
        <time>2020-06-17T08:35:15Z</time>
      </trkpt>
      <trkpt lat="45.74404" lon="-1.08401">
        <ele>0.8</ele>
        <time>2020-06-17T08:35:22Z</time>
      </trkpt>
      <trkpt lat="45.74413" lon="-1.08397">
        <ele>0.6</ele>
        <time>2020-06-17T08:35:30Z</time>
      </trkpt>
      <trkpt lat="45.74423" lon="-1.08393">
        <ele>0.5</ele>
        <time>2020-06-17T08:35:40Z</time>
      </trkpt>
      <trkpt lat="45.74431" lon="-1.08389">
        <ele>0.4</ele>
        <time>2020-06-17T08:35:48Z</time>
      </trkpt>
      <trkpt lat="45.7444" lon="-1.08384">
        <ele>0.4</ele>
        <time>2020-06-17T08:35:55Z</time>
      </trkpt>
      <trkpt lat="45.74448" lon="-1.08378">
        <ele>0.3</ele>
        <time>2020-06-17T08:36:03Z</time>
      </trkpt>
      <trkpt lat="45.74457" lon="-1.08372">
        <ele>0.3</ele>
        <time>2020-06-17T08:36:10Z</time>
      </trkpt>
      <trkpt lat="45.74464" lon="-1.08365">
        <ele>0.3</ele>
        <time>2020-06-17T08:36:18Z</time>
      </trkpt>
      <trkpt lat="45.74471" lon="-1.08356">
        <ele>0.4</ele>
        <time>2020-06-17T08:36:29Z</time>
      </trkpt>
      <trkpt lat="45.74477" lon="-1.08345">
        <ele>0.4</ele>
        <time>2020-06-17T08:36:39Z</time>
      </trkpt>
      <trkpt lat="45.74483" lon="-1.08334">
        <ele>0.4</ele>
        <time>2020-06-17T08:36:48Z</time>
      </trkpt>
      <trkpt lat="45.74489" lon="-1.08324">
        <ele>0.4</ele>
        <time>2020-06-17T08:36:56Z</time>
      </trkpt>
      <trkpt lat="45.74495" lon="-1.08315">
        <ele>0.4</ele>
        <time>2020-06-17T08:37:03Z</time>
      </trkpt>
      <trkpt lat="45.74502" lon="-1.08305">
        <ele>0.4</ele>
        <time>2020-06-17T08:37:12Z</time>
      </trkpt>
      <trkpt lat="45.74509" lon="-1.08297">
        <ele>0.4</ele>
        <time>2020-06-17T08:37:21Z</time>
      </trkpt>
      <trkpt lat="45.74518" lon="-1.0829">
        <ele>0.4</ele>
        <time>2020-06-17T08:37:29Z</time>
      </trkpt>
      <trkpt lat="45.7452" lon="-1.08277">
        <ele>0.1</ele>
        <time>2020-06-17T08:37:38Z</time>
      </trkpt>
      <trkpt lat="45.74514" lon="-1.08266">
        <ele>4.5</ele>
        <time>2020-06-17T08:37:45Z</time>
      </trkpt>
      <trkpt lat="45.74509" lon="-1.08254">
        <ele>-0.1</ele>
        <time>2020-06-17T08:37:54Z</time>
      </trkpt>
      <trkpt lat="45.74505" lon="-1.08243">
        <ele>-0.1</ele>
        <time>2020-06-17T08:38:01Z</time>
      </trkpt>
      <trkpt lat="45.745" lon="-1.0823">
        <ele>-0.1</ele>
        <time>2020-06-17T08:38:10Z</time>
      </trkpt>
      <trkpt lat="45.74496" lon="-1.08217">
        <ele>0.3</ele>
        <time>2020-06-17T08:38:19Z</time>
      </trkpt>
      <trkpt lat="45.74491" lon="-1.08205">
        <ele>0.9</ele>
        <time>2020-06-17T08:38:29Z</time>
      </trkpt>
      <trkpt lat="45.74486" lon="-1.08194">
        <ele>1.5</ele>
        <time>2020-06-17T08:38:38Z</time>
      </trkpt>
      <trkpt lat="45.74482" lon="-1.08181">
        <ele>2.3</ele>
        <time>2020-06-17T08:38:49Z</time>
      </trkpt>
      <trkpt lat="45.74477" lon="-1.0817">
        <ele>2.8</ele>
        <time>2020-06-17T08:38:58Z</time>
      </trkpt>
      <trkpt lat="45.74473" lon="-1.08158">
        <ele>3.6</ele>
        <time>2020-06-17T08:39:07Z</time>
      </trkpt>
      <trkpt lat="45.74468" lon="-1.08145">
        <ele>4.2</ele>
        <time>2020-06-17T08:39:16Z</time>
      </trkpt>
      <trkpt lat="45.74464" lon="-1.08134">
        <ele>4.7</ele>
        <time>2020-06-17T08:39:24Z</time>
      </trkpt>
      <trkpt lat="45.74461" lon="-1.08122">
        <ele>5.1</ele>
        <time>2020-06-17T08:39:33Z</time>
      </trkpt>
      <trkpt lat="45.74469" lon="-1.08113">
        <ele>5.4</ele>
        <time>2020-06-17T08:39:42Z</time>
      </trkpt>
      <trkpt lat="45.74477" lon="-1.08107">
        <ele>6</ele>
        <time>2020-06-17T08:39:50Z</time>
      </trkpt>
      <trkpt lat="45.74485" lon="-1.08099">
        <ele>6.4</ele>
        <time>2020-06-17T08:39:58Z</time>
      </trkpt>
      <trkpt lat="45.74493" lon="-1.0809">
        <ele>6.6</ele>
        <time>2020-06-17T08:40:07Z</time>
      </trkpt>
      <trkpt lat="45.74501" lon="-1.08083">
        <ele>6.8</ele>
        <time>2020-06-17T08:40:14Z</time>
      </trkpt>
      <trkpt lat="45.74509" lon="-1.08074">
        <ele>6.9</ele>
        <time>2020-06-17T08:40:22Z</time>
      </trkpt>
      <trkpt lat="45.74516" lon="-1.08065">
        <ele>7</ele>
        <time>2020-06-17T08:40:30Z</time>
      </trkpt>
      <trkpt lat="45.74524" lon="-1.08055">
        <ele>7</ele>
        <time>2020-06-17T08:40:39Z</time>
      </trkpt>
      <trkpt lat="45.74532" lon="-1.08047">
        <ele>7</ele>
        <time>2020-06-17T08:40:46Z</time>
      </trkpt>
      <trkpt lat="45.7454" lon="-1.08039">
        <ele>7</ele>
        <time>2020-06-17T08:40:54Z</time>
      </trkpt>
      <trkpt lat="45.74547" lon="-1.08031">
        <ele>6.9</ele>
        <time>2020-06-17T08:41:01Z</time>
      </trkpt>
      <trkpt lat="45.74555" lon="-1.08025">
        <ele>6.7</ele>
        <time>2020-06-17T08:41:09Z</time>
      </trkpt>
      <trkpt lat="45.74564" lon="-1.08018">
        <ele>6.5</ele>
        <time>2020-06-17T08:41:16Z</time>
      </trkpt>
      <trkpt lat="45.74571" lon="-1.08011">
        <ele>6</ele>
        <time>2020-06-17T08:41:23Z</time>
      </trkpt>
      <trkpt lat="45.74579" lon="-1.08004">
        <ele>5.8</ele>
        <time>2020-06-17T08:41:30Z</time>
      </trkpt>
      <trkpt lat="45.74587" lon="-1.07996">
        <ele>5.5</ele>
        <time>2020-06-17T08:41:38Z</time>
      </trkpt>
      <trkpt lat="45.74595" lon="-1.07989">
        <ele>5.2</ele>
        <time>2020-06-17T08:41:46Z</time>
      </trkpt>
      <trkpt lat="45.74603" lon="-1.07981">
        <ele>5</ele>
        <time>2020-06-17T08:41:54Z</time>
      </trkpt>
      <trkpt lat="45.74612" lon="-1.07974">
        <ele>5</ele>
        <time>2020-06-17T08:42:02Z</time>
      </trkpt>
      <trkpt lat="45.7462" lon="-1.07967">
        <ele>5.1</ele>
        <time>2020-06-17T08:42:10Z</time>
      </trkpt>
      <trkpt lat="45.74627" lon="-1.07959">
        <ele>5.4</ele>
        <time>2020-06-17T08:42:18Z</time>
      </trkpt>
      <trkpt lat="45.74634" lon="-1.0795">
        <ele>5.8</ele>
        <time>2020-06-17T08:42:26Z</time>
      </trkpt>
      <trkpt lat="45.74635" lon="-1.07937">
        <ele>6</ele>
        <time>2020-06-17T08:42:34Z</time>
      </trkpt>
      <trkpt lat="45.74632" lon="-1.07923">
        <ele>6.2</ele>
        <time>2020-06-17T08:42:42Z</time>
      </trkpt>
      <trkpt lat="45.74629" lon="-1.07909">
        <ele>6.3</ele>
        <time>2020-06-17T08:42:50Z</time>
      </trkpt>
      <trkpt lat="45.74625" lon="-1.07898">
        <ele>6.4</ele>
        <time>2020-06-17T08:42:57Z</time>
      </trkpt>
      <trkpt lat="45.74621" lon="-1.07886">
        <ele>6.5</ele>
        <time>2020-06-17T08:43:04Z</time>
      </trkpt>
      <trkpt lat="45.74616" lon="-1.07873">
        <ele>6.6</ele>
        <time>2020-06-17T08:43:12Z</time>
      </trkpt>
      <trkpt lat="45.74612" lon="-1.0786">
        <ele>6.8</ele>
        <time>2020-06-17T08:43:20Z</time>
      </trkpt>
      <trkpt lat="45.74608" lon="-1.07846">
        <ele>6.9</ele>
        <time>2020-06-17T08:43:28Z</time>
      </trkpt>
      <trkpt lat="45.74604" lon="-1.07833">
        <ele>7.2</ele>
        <time>2020-06-17T08:43:36Z</time>
      </trkpt>
      <trkpt lat="45.74601" lon="-1.0782">
        <ele>7.4</ele>
        <time>2020-06-17T08:43:44Z</time>
      </trkpt>
      <trkpt lat="45.74596" lon="-1.07807">
        <ele>7.5</ele>
        <time>2020-06-17T08:43:52Z</time>
      </trkpt>
      <trkpt lat="45.74592" lon="-1.07794">
        <ele>7.6</ele>
        <time>2020-06-17T08:44:00Z</time>
      </trkpt>
      <trkpt lat="45.74588" lon="-1.07782">
        <ele>7.6</ele>
        <time>2020-06-17T08:44:08Z</time>
      </trkpt>
      <trkpt lat="45.74583" lon="-1.0777">
        <ele>7.6</ele>
        <time>2020-06-17T08:44:16Z</time>
      </trkpt>
      <trkpt lat="45.74579" lon="-1.07758">
        <ele>7.6</ele>
        <time>2020-06-17T08:44:24Z</time>
      </trkpt>
      <trkpt lat="45.74575" lon="-1.07744">
        <ele>7.5</ele>
        <time>2020-06-17T08:44:32Z</time>
      </trkpt>
      <trkpt lat="45.74573" lon="-1.0773">
        <ele>7.5</ele>
        <time>2020-06-17T08:44:40Z</time>
      </trkpt>
      <trkpt lat="45.74572" lon="-1.07716">
        <ele>7.4</ele>
        <time>2020-06-17T08:44:48Z</time>
      </trkpt>
      <trkpt lat="45.74572" lon="-1.07703">
        <ele>7.4</ele>
        <time>2020-06-17T08:44:56Z</time>
      </trkpt>
      <trkpt lat="45.74572" lon="-1.07688">
        <ele>7.3</ele>
        <time>2020-06-17T08:45:04Z</time>
      </trkpt>
      <trkpt lat="45.74571" lon="-1.07674">
        <ele>7.1</ele>
        <time>2020-06-17T08:45:22Z</time>
      </trkpt>
      <trkpt lat="45.7457" lon="-1.07661">
        <ele>7</ele>
        <time>2020-06-17T08:45:30Z</time>
      </trkpt>
      <trkpt lat="45.74567" lon="-1.07649">
        <ele>7</ele>
        <time>2020-06-17T08:45:38Z</time>
      </trkpt>
      <trkpt lat="45.74564" lon="-1.07636">
        <ele>6.9</ele>
        <time>2020-06-17T08:45:46Z</time>
      </trkpt>
      <trkpt lat="45.74559" lon="-1.07623">
        <ele>6.9</ele>
        <time>2020-06-17T08:45:54Z</time>
      </trkpt>
      <trkpt lat="45.74553" lon="-1.07612">
        <ele>6.8</ele>
        <time>2020-06-17T08:46:01Z</time>
      </trkpt>
      <trkpt lat="45.74548" lon="-1.07601">
        <ele>6.6</ele>
        <time>2020-06-17T08:46:08Z</time>
      </trkpt>
      <trkpt lat="45.74542" lon="-1.07591">
        <ele>6.4</ele>
        <time>2020-06-17T08:46:15Z</time>
      </trkpt>
      <trkpt lat="45.74534" lon="-1.07584">
        <ele>6.2</ele>
        <time>2020-06-17T08:46:23Z</time>
      </trkpt>
      <trkpt lat="45.74525" lon="-1.07587">
        <ele>6</ele>
        <time>2020-06-17T08:46:30Z</time>
      </trkpt>
      <trkpt lat="45.74516" lon="-1.07591">
        <ele>5.8</ele>
        <time>2020-06-17T08:46:37Z</time>
      </trkpt>
      <trkpt lat="45.74507" lon="-1.07589">
        <ele>5.6</ele>
        <time>2020-06-17T08:46:45Z</time>
      </trkpt>
      <trkpt lat="45.74501" lon="-1.07579">
        <ele>5.6</ele>
        <time>2020-06-17T08:46:52Z</time>
      </trkpt>
      <trkpt lat="45.74496" lon="-1.07567">
        <ele>5.5</ele>
        <time>2020-06-17T08:47:00Z</time>
      </trkpt>
      <trkpt lat="45.74491" lon="-1.07555">
        <ele>5.3</ele>
        <time>2020-06-17T08:47:08Z</time>
      </trkpt>
      <trkpt lat="45.74486" lon="-1.07544">
        <ele>5.1</ele>
        <time>2020-06-17T08:47:16Z</time>
      </trkpt>
      <trkpt lat="45.74481" lon="-1.07531">
        <ele>4.9</ele>
        <time>2020-06-17T08:47:24Z</time>
      </trkpt>
      <trkpt lat="45.74476" lon="-1.07519">
        <ele>4.8</ele>
        <time>2020-06-17T08:47:32Z</time>
      </trkpt>
      <trkpt lat="45.74471" lon="-1.07507">
        <ele>4.5</ele>
        <time>2020-06-17T08:47:39Z</time>
      </trkpt>
      <trkpt lat="45.74466" lon="-1.07496">
        <ele>3.9</ele>
        <time>2020-06-17T08:47:47Z</time>
      </trkpt>
      <trkpt lat="45.7446" lon="-1.07483">
        <ele>3.6</ele>
        <time>2020-06-17T08:47:55Z</time>
      </trkpt>
      <trkpt lat="45.74455" lon="-1.07472">
        <ele>3.3</ele>
        <time>2020-06-17T08:48:02Z</time>
      </trkpt>
      <trkpt lat="45.7445" lon="-1.07461">
        <ele>3</ele>
        <time>2020-06-17T08:48:09Z</time>
      </trkpt>
      <trkpt lat="45.74445" lon="-1.07448">
        <ele>2.8</ele>
        <time>2020-06-17T08:48:17Z</time>
      </trkpt>
      <trkpt lat="45.7444" lon="-1.07438">
        <ele>2.5</ele>
        <time>2020-06-17T08:48:24Z</time>
      </trkpt>
      <trkpt lat="45.74435" lon="-1.07426">
        <ele>2.3</ele>
        <time>2020-06-17T08:48:32Z</time>
      </trkpt>
      <trkpt lat="45.7443" lon="-1.07413">
        <ele>2.1</ele>
        <time>2020-06-17T08:48:40Z</time>
      </trkpt>
      <trkpt lat="45.74424" lon="-1.07401">
        <ele>1.7</ele>
        <time>2020-06-17T08:48:48Z</time>
      </trkpt>
      <trkpt lat="45.7442" lon="-1.07389">
        <ele>1.6</ele>
        <time>2020-06-17T08:48:55Z</time>
      </trkpt>
      <trkpt lat="45.74415" lon="-1.07376">
        <ele>1.4</ele>
        <time>2020-06-17T08:49:03Z</time>
      </trkpt>
      <trkpt lat="45.7441" lon="-1.07364">
        <ele>1.3</ele>
        <time>2020-06-17T08:49:11Z</time>
      </trkpt>
      <trkpt lat="45.74405" lon="-1.07351">
        <ele>1.2</ele>
        <time>2020-06-17T08:49:19Z</time>
      </trkpt>
      <trkpt lat="45.744" lon="-1.07339">
        <ele>0.9</ele>
        <time>2020-06-17T08:49:27Z</time>
      </trkpt>
      <trkpt lat="45.74395" lon="-1.07328">
        <ele>0.7</ele>
        <time>2020-06-17T08:49:35Z</time>
      </trkpt>
      <trkpt lat="45.74391" lon="-1.07316">
        <ele>0.3</ele>
        <time>2020-06-17T08:49:44Z</time>
      </trkpt>
      <trkpt lat="45.74385" lon="-1.07305">
        <ele>-0.1</ele>
        <time>2020-06-17T08:49:52Z</time>
      </trkpt>
      <trkpt lat="45.74379" lon="-1.07296">
        <ele>-0.5</ele>
        <time>2020-06-17T08:50:02Z</time>
      </trkpt>
      <trkpt lat="45.74371" lon="-1.07286">
        <ele>-0.8</ele>
        <time>2020-06-17T08:50:22Z</time>
      </trkpt>
      <trkpt lat="45.74366" lon="-1.07275">
        <ele>-0.9</ele>
        <time>2020-06-17T08:50:35Z</time>
      </trkpt>
      <trkpt lat="45.74356" lon="-1.07277">
        <ele>-1</ele>
        <time>2020-06-17T08:50:45Z</time>
      </trkpt>
      <trkpt lat="45.74349" lon="-1.07285">
        <ele>-1.1</ele>
        <time>2020-06-17T08:50:54Z</time>
      </trkpt>
      <trkpt lat="45.74341" lon="-1.07294">
        <ele>-1.2</ele>
        <time>2020-06-17T08:51:02Z</time>
      </trkpt>
      <trkpt lat="45.74332" lon="-1.07299">
        <ele>-1.2</ele>
        <time>2020-06-17T08:51:10Z</time>
      </trkpt>
      <trkpt lat="45.74324" lon="-1.07307">
        <ele>-1.3</ele>
        <time>2020-06-17T08:51:19Z</time>
      </trkpt>
      <trkpt lat="45.74314" lon="-1.07306">
        <ele>-1.3</ele>
        <time>2020-06-17T08:51:26Z</time>
      </trkpt>
      <trkpt lat="45.74306" lon="-1.07299">
        <ele>-1.4</ele>
        <time>2020-06-17T08:51:33Z</time>
      </trkpt>
      <trkpt lat="45.74299" lon="-1.0729">
        <ele>-1.4</ele>
        <time>2020-06-17T08:51:42Z</time>
      </trkpt>
      <trkpt lat="45.74293" lon="-1.07279">
        <ele>-1.4</ele>
        <time>2020-06-17T08:51:50Z</time>
      </trkpt>
      <trkpt lat="45.74286" lon="-1.07269">
        <ele>-1.4</ele>
        <time>2020-06-17T08:51:58Z</time>
      </trkpt>
      <trkpt lat="45.74279" lon="-1.07259">
        <ele>-1.4</ele>
        <time>2020-06-17T08:52:05Z</time>
      </trkpt>
      <trkpt lat="45.74274" lon="-1.07247">
        <ele>-1.4</ele>
        <time>2020-06-17T08:52:12Z</time>
      </trkpt>
      <trkpt lat="45.74268" lon="-1.07237">
        <ele>-1.4</ele>
        <time>2020-06-17T08:52:20Z</time>
      </trkpt>
      <trkpt lat="45.74262" lon="-1.07226">
        <ele>-1.4</ele>
        <time>2020-06-17T08:52:28Z</time>
      </trkpt>
      <trkpt lat="45.74254" lon="-1.07219">
        <ele>-1.4</ele>
        <time>2020-06-17T08:52:33Z</time>
      </trkpt>
      <trkpt lat="45.74245" lon="-1.07213">
        <ele>-1.4</ele>
        <time>2020-06-17T08:52:40Z</time>
      </trkpt>
      <trkpt lat="45.74236" lon="-1.07212">
        <ele>-1.4</ele>
        <time>2020-06-17T08:52:47Z</time>
      </trkpt>
      <trkpt lat="45.74227" lon="-1.07215">
        <ele>-1.4</ele>
        <time>2020-06-17T08:52:54Z</time>
      </trkpt>
      <trkpt lat="45.74218" lon="-1.07221">
        <ele>-1.4</ele>
        <time>2020-06-17T08:53:01Z</time>
      </trkpt>
      <trkpt lat="45.7421" lon="-1.07228">
        <ele>-1.4</ele>
        <time>2020-06-17T08:53:08Z</time>
      </trkpt>
      <trkpt lat="45.74201" lon="-1.07236">
        <ele>-1.4</ele>
        <time>2020-06-17T08:53:16Z</time>
      </trkpt>
      <trkpt lat="45.74193" lon="-1.07243">
        <ele>-1.4</ele>
        <time>2020-06-17T08:53:26Z</time>
      </trkpt>
      <trkpt lat="45.74185" lon="-1.07251">
        <ele>-1.4</ele>
        <time>2020-06-17T08:53:34Z</time>
      </trkpt>
      <trkpt lat="45.74178" lon="-1.07259">
        <ele>-1.4</ele>
        <time>2020-06-17T08:53:44Z</time>
      </trkpt>
      <trkpt lat="45.7417" lon="-1.07267">
        <ele>-1.4</ele>
        <time>2020-06-17T08:53:51Z</time>
      </trkpt>
      <trkpt lat="45.74162" lon="-1.07276">
        <ele>-1.3</ele>
        <time>2020-06-17T08:53:59Z</time>
      </trkpt>
      <trkpt lat="45.74155" lon="-1.07284">
        <ele>-1.3</ele>
        <time>2020-06-17T08:54:06Z</time>
      </trkpt>
      <trkpt lat="45.74149" lon="-1.07293">
        <ele>-1.2</ele>
        <time>2020-06-17T08:54:14Z</time>
      </trkpt>
      <trkpt lat="45.74142" lon="-1.07303">
        <ele>-1.1</ele>
        <time>2020-06-17T08:54:22Z</time>
      </trkpt>
      <trkpt lat="45.74135" lon="-1.07313">
        <ele>-1</ele>
        <time>2020-06-17T08:54:30Z</time>
      </trkpt>
      <trkpt lat="45.74128" lon="-1.07323">
        <ele>-1</ele>
        <time>2020-06-17T08:54:38Z</time>
      </trkpt>
      <trkpt lat="45.74122" lon="-1.07333">
        <ele>-1</ele>
        <time>2020-06-17T08:54:44Z</time>
      </trkpt>
      <trkpt lat="45.74115" lon="-1.07341">
        <ele>-1</ele>
        <time>2020-06-17T08:54:50Z</time>
      </trkpt>
      <trkpt lat="45.74109" lon="-1.07351">
        <ele>-0.9</ele>
        <time>2020-06-17T08:54:57Z</time>
      </trkpt>
      <trkpt lat="45.74103" lon="-1.07362">
        <ele>-0.9</ele>
        <time>2020-06-17T08:55:05Z</time>
      </trkpt>
      <trkpt lat="45.74096" lon="-1.07372">
        <ele>-0.9</ele>
        <time>2020-06-17T08:55:13Z</time>
      </trkpt>
      <trkpt lat="45.74089" lon="-1.07382">
        <ele>-0.8</ele>
        <time>2020-06-17T08:55:21Z</time>
      </trkpt>
      <trkpt lat="45.74082" lon="-1.07391">
        <ele>-0.7</ele>
        <time>2020-06-17T08:55:29Z</time>
      </trkpt>
      <trkpt lat="45.74075" lon="-1.07401">
        <ele>-0.5</ele>
        <time>2020-06-17T08:55:37Z</time>
      </trkpt>
      <trkpt lat="45.74068" lon="-1.07411">
        <ele>-0.4</ele>
        <time>2020-06-17T08:55:45Z</time>
      </trkpt>
      <trkpt lat="45.74062" lon="-1.0742">
        <ele>-0.4</ele>
        <time>2020-06-17T08:55:52Z</time>
      </trkpt>
      <trkpt lat="45.74055" lon="-1.0743">
        <ele>-0.3</ele>
        <time>2020-06-17T08:55:59Z</time>
      </trkpt>
      <trkpt lat="45.74048" lon="-1.0744">
        <ele>-0.3</ele>
        <time>2020-06-17T08:56:07Z</time>
      </trkpt>
      <trkpt lat="45.74041" lon="-1.07449">
        <ele>-0.2</ele>
        <time>2020-06-17T08:56:15Z</time>
      </trkpt>
      <trkpt lat="45.74035" lon="-1.07459">
        <ele>0.2</ele>
        <time>2020-06-17T08:56:23Z</time>
      </trkpt>
      <trkpt lat="45.74028" lon="-1.07468">
        <ele>0.8</ele>
        <time>2020-06-17T08:56:31Z</time>
      </trkpt>
      <trkpt lat="45.74023" lon="-1.07479">
        <ele>1.1</ele>
        <time>2020-06-17T08:56:38Z</time>
      </trkpt>
      <trkpt lat="45.74018" lon="-1.0749">
        <ele>1.5</ele>
        <time>2020-06-17T08:56:46Z</time>
      </trkpt>
      <trkpt lat="45.74012" lon="-1.07502">
        <ele>1.7</ele>
        <time>2020-06-17T08:56:54Z</time>
      </trkpt>
      <trkpt lat="45.74007" lon="-1.07513">
        <ele>2.2</ele>
        <time>2020-06-17T08:57:02Z</time>
      </trkpt>
      <trkpt lat="45.74001" lon="-1.07526">
        <ele>2.6</ele>
        <time>2020-06-17T08:57:10Z</time>
      </trkpt>
      <trkpt lat="45.73997" lon="-1.07537">
        <ele>3.3</ele>
        <time>2020-06-17T08:57:17Z</time>
      </trkpt>
      <trkpt lat="45.73992" lon="-1.07548">
        <ele>4</ele>
        <time>2020-06-17T08:57:24Z</time>
      </trkpt>
      <trkpt lat="45.73985" lon="-1.0756">
        <ele>4.5</ele>
        <time>2020-06-17T08:57:32Z</time>
      </trkpt>
      <trkpt lat="45.73979" lon="-1.07571">
        <ele>5.1</ele>
        <time>2020-06-17T08:57:40Z</time>
      </trkpt>
      <trkpt lat="45.73973" lon="-1.07582">
        <ele>5.4</ele>
        <time>2020-06-17T08:57:48Z</time>
      </trkpt>
      <trkpt lat="45.73965" lon="-1.0759">
        <ele>6.1</ele>
        <time>2020-06-17T08:57:56Z</time>
      </trkpt>
      <trkpt lat="45.73958" lon="-1.076">
        <ele>6.6</ele>
        <time>2020-06-17T08:58:04Z</time>
      </trkpt>
      <trkpt lat="45.73952" lon="-1.07611">
        <ele>7.1</ele>
        <time>2020-06-17T08:58:12Z</time>
      </trkpt>
      <trkpt lat="45.73945" lon="-1.0762">
        <ele>7.5</ele>
        <time>2020-06-17T08:58:20Z</time>
      </trkpt>
      <trkpt lat="45.73939" lon="-1.07629">
        <ele>7.7</ele>
        <time>2020-06-17T08:58:28Z</time>
      </trkpt>
      <trkpt lat="45.73932" lon="-1.07638">
        <ele>8.1</ele>
        <time>2020-06-17T08:58:36Z</time>
      </trkpt>
      <trkpt lat="45.73925" lon="-1.07648">
        <ele>8.6</ele>
        <time>2020-06-17T08:58:46Z</time>
      </trkpt>
      <trkpt lat="45.73917" lon="-1.07656">
        <ele>8.9</ele>
        <time>2020-06-17T08:58:54Z</time>
      </trkpt>
      <trkpt lat="45.73911" lon="-1.07665">
        <ele>9</ele>
        <time>2020-06-17T08:59:02Z</time>
      </trkpt>
      <trkpt lat="45.73903" lon="-1.07674">
        <ele>9.1</ele>
        <time>2020-06-17T08:59:10Z</time>
      </trkpt>
      <trkpt lat="45.73896" lon="-1.07682">
        <ele>9.2</ele>
        <time>2020-06-17T08:59:18Z</time>
      </trkpt>
      <trkpt lat="45.73889" lon="-1.07691">
        <ele>9.4</ele>
        <time>2020-06-17T08:59:26Z</time>
      </trkpt>
      <trkpt lat="45.73881" lon="-1.07699">
        <ele>9.8</ele>
        <time>2020-06-17T08:59:35Z</time>
      </trkpt>
      <trkpt lat="45.73874" lon="-1.07708">
        <ele>10.3</ele>
        <time>2020-06-17T08:59:44Z</time>
      </trkpt>
      <trkpt lat="45.73867" lon="-1.07717">
        <ele>10.6</ele>
        <time>2020-06-17T08:59:53Z</time>
      </trkpt>
      <trkpt lat="45.73859" lon="-1.07725">
        <ele>11.2</ele>
        <time>2020-06-17T09:00:05Z</time>
      </trkpt>
      <trkpt lat="45.73853" lon="-1.07734">
        <ele>13.4</ele>
        <time>2020-06-17T09:03:53Z</time>
      </trkpt>
      <trkpt lat="45.73845" lon="-1.07725">
        <ele>13.6</ele>
        <time>2020-06-17T09:04:05Z</time>
      </trkpt>
      <trkpt lat="45.73839" lon="-1.07713">
        <ele>13.5</ele>
        <time>2020-06-17T09:04:15Z</time>
      </trkpt>
      <trkpt lat="45.73832" lon="-1.07704">
        <ele>13.4</ele>
        <time>2020-06-17T09:04:24Z</time>
      </trkpt>
      <trkpt lat="45.73825" lon="-1.07694">
        <ele>13.3</ele>
        <time>2020-06-17T09:04:34Z</time>
      </trkpt>
      <trkpt lat="45.73818" lon="-1.07684">
        <ele>13.3</ele>
        <time>2020-06-17T09:04:43Z</time>
      </trkpt>
      <trkpt lat="45.73812" lon="-1.07675">
        <ele>13.3</ele>
        <time>2020-06-17T09:04:51Z</time>
      </trkpt>
      <trkpt lat="45.73804" lon="-1.07666">
        <ele>13.2</ele>
        <time>2020-06-17T09:05:00Z</time>
      </trkpt>
      <trkpt lat="45.73798" lon="-1.07655">
        <ele>13</ele>
        <time>2020-06-17T09:05:08Z</time>
      </trkpt>
      <trkpt lat="45.73792" lon="-1.07645">
        <ele>12.6</ele>
        <time>2020-06-17T09:05:16Z</time>
      </trkpt>
      <trkpt lat="45.73785" lon="-1.07635">
        <ele>12.5</ele>
        <time>2020-06-17T09:05:24Z</time>
      </trkpt>
      <trkpt lat="45.73778" lon="-1.07625">
        <ele>12.3</ele>
        <time>2020-06-17T09:05:32Z</time>
      </trkpt>
      <trkpt lat="45.73773" lon="-1.07615">
        <ele>12.2</ele>
        <time>2020-06-17T09:05:40Z</time>
      </trkpt>
      <trkpt lat="45.73766" lon="-1.07607">
        <ele>12</ele>
        <time>2020-06-17T09:05:48Z</time>
      </trkpt>
      <trkpt lat="45.73756" lon="-1.07608">
        <ele>11.9</ele>
        <time>2020-06-17T09:05:56Z</time>
      </trkpt>
      <trkpt lat="45.73747" lon="-1.07616">
        <ele>11.8</ele>
        <time>2020-06-17T09:06:04Z</time>
      </trkpt>
      <trkpt lat="45.7374" lon="-1.07625">
        <ele>11.8</ele>
        <time>2020-06-17T09:06:13Z</time>
      </trkpt>
      <trkpt lat="45.73732" lon="-1.07634">
        <ele>12</ele>
        <time>2020-06-17T09:06:22Z</time>
      </trkpt>
      <trkpt lat="45.73725" lon="-1.07643">
        <ele>12.5</ele>
        <time>2020-06-17T09:06:31Z</time>
      </trkpt>
      <trkpt lat="45.73718" lon="-1.07651">
        <ele>12.8</ele>
        <time>2020-06-17T09:06:39Z</time>
      </trkpt>
      <trkpt lat="45.73711" lon="-1.07661">
        <ele>13</ele>
        <time>2020-06-17T09:06:48Z</time>
      </trkpt>
      <trkpt lat="45.73703" lon="-1.07668">
        <ele>13.2</ele>
        <time>2020-06-17T09:06:57Z</time>
      </trkpt>
      <trkpt lat="45.73695" lon="-1.07675">
        <ele>13.3</ele>
        <time>2020-06-17T09:07:05Z</time>
      </trkpt>
      <trkpt lat="45.7369" lon="-1.07686">
        <ele>13.4</ele>
        <time>2020-06-17T09:07:13Z</time>
      </trkpt>
      <trkpt lat="45.73681" lon="-1.07693">
        <ele>13.6</ele>
        <time>2020-06-17T09:07:22Z</time>
      </trkpt>
      <trkpt lat="45.73673" lon="-1.07701">
        <ele>13.9</ele>
        <time>2020-06-17T09:07:30Z</time>
      </trkpt>
      <trkpt lat="45.73665" lon="-1.07709">
        <ele>14.3</ele>
        <time>2020-06-17T09:07:39Z</time>
      </trkpt>
      <trkpt lat="45.73656" lon="-1.07715">
        <ele>14.5</ele>
        <time>2020-06-17T09:07:47Z</time>
      </trkpt>
      <trkpt lat="45.73649" lon="-1.07724">
        <ele>14.8</ele>
        <time>2020-06-17T09:07:55Z</time>
      </trkpt>
      <trkpt lat="45.7364" lon="-1.07732">
        <ele>14.8</ele>
        <time>2020-06-17T09:08:04Z</time>
      </trkpt>
      <trkpt lat="45.73633" lon="-1.0774">
        <ele>14.9</ele>
        <time>2020-06-17T09:08:12Z</time>
      </trkpt>
      <trkpt lat="45.73625" lon="-1.07748">
        <ele>15</ele>
        <time>2020-06-17T09:08:20Z</time>
      </trkpt>
      <trkpt lat="45.73618" lon="-1.07757">
        <ele>15.1</ele>
        <time>2020-06-17T09:08:29Z</time>
      </trkpt>
      <trkpt lat="45.73611" lon="-1.07767">
        <ele>15.1</ele>
        <time>2020-06-17T09:08:38Z</time>
      </trkpt>
      <trkpt lat="45.73604" lon="-1.07776">
        <ele>15.2</ele>
        <time>2020-06-17T09:08:47Z</time>
      </trkpt>
      <trkpt lat="45.73597" lon="-1.07786">
        <ele>15.2</ele>
        <time>2020-06-17T09:08:56Z</time>
      </trkpt>
      <trkpt lat="45.73591" lon="-1.07795">
        <ele>15.2</ele>
        <time>2020-06-17T09:09:04Z</time>
      </trkpt>
      <trkpt lat="45.73582" lon="-1.078">
        <ele>14.8</ele>
        <time>2020-06-17T09:09:19Z</time>
      </trkpt>
      <trkpt lat="45.73577" lon="-1.0779">
        <ele>14.1</ele>
        <time>2020-06-17T09:09:30Z</time>
      </trkpt>
      <trkpt lat="45.73574" lon="-1.07777">
        <ele>13.7</ele>
        <time>2020-06-17T09:09:39Z</time>
      </trkpt>
      <trkpt lat="45.73569" lon="-1.07765">
        <ele>13.4</ele>
        <time>2020-06-17T09:09:46Z</time>
      </trkpt>
      <trkpt lat="45.73565" lon="-1.07753">
        <ele>13.1</ele>
        <time>2020-06-17T09:09:54Z</time>
      </trkpt>
      <trkpt lat="45.7356" lon="-1.07741">
        <ele>12.9</ele>
        <time>2020-06-17T09:10:02Z</time>
      </trkpt>
      <trkpt lat="45.73555" lon="-1.07728">
        <ele>12.7</ele>
        <time>2020-06-17T09:10:10Z</time>
      </trkpt>
      <trkpt lat="45.73549" lon="-1.07717">
        <ele>12.5</ele>
        <time>2020-06-17T09:10:18Z</time>
      </trkpt>
      <trkpt lat="45.73544" lon="-1.07706">
        <ele>12.3</ele>
        <time>2020-06-17T09:10:25Z</time>
      </trkpt>
      <trkpt lat="45.73539" lon="-1.07695">
        <ele>11.9</ele>
        <time>2020-06-17T09:10:32Z</time>
      </trkpt>
      <trkpt lat="45.73534" lon="-1.07682">
        <ele>11.7</ele>
        <time>2020-06-17T09:10:40Z</time>
      </trkpt>
      <trkpt lat="45.73528" lon="-1.07671">
        <ele>11.4</ele>
        <time>2020-06-17T09:10:48Z</time>
      </trkpt>
      <trkpt lat="45.73523" lon="-1.07659">
        <ele>11.1</ele>
        <time>2020-06-17T09:10:56Z</time>
      </trkpt>
      <trkpt lat="45.73517" lon="-1.07647">
        <ele>10.9</ele>
        <time>2020-06-17T09:11:03Z</time>
      </trkpt>
      <trkpt lat="45.73512" lon="-1.07636">
        <ele>10.8</ele>
        <time>2020-06-17T09:11:11Z</time>
      </trkpt>
      <trkpt lat="45.73507" lon="-1.07624">
        <ele>10.7</ele>
        <time>2020-06-17T09:11:19Z</time>
      </trkpt>
      <trkpt lat="45.73502" lon="-1.07613">
        <ele>10.6</ele>
        <time>2020-06-17T09:11:26Z</time>
      </trkpt>
      <trkpt lat="45.73496" lon="-1.07601">
        <ele>10.6</ele>
        <time>2020-06-17T09:11:34Z</time>
      </trkpt>
      <trkpt lat="45.73491" lon="-1.0759">
        <ele>10.6</ele>
        <time>2020-06-17T09:11:42Z</time>
      </trkpt>
      <trkpt lat="45.73485" lon="-1.07579">
        <ele>10.6</ele>
        <time>2020-06-17T09:11:50Z</time>
      </trkpt>
      <trkpt lat="45.73479" lon="-1.07568">
        <ele>10.6</ele>
        <time>2020-06-17T09:11:57Z</time>
      </trkpt>
      <trkpt lat="45.73473" lon="-1.07558">
        <ele>10.6</ele>
        <time>2020-06-17T09:12:04Z</time>
      </trkpt>
      <trkpt lat="45.73467" lon="-1.07547">
        <ele>10.5</ele>
        <time>2020-06-17T09:12:12Z</time>
      </trkpt>
      <trkpt lat="45.73461" lon="-1.07536">
        <ele>10.5</ele>
        <time>2020-06-17T09:12:20Z</time>
      </trkpt>
      <trkpt lat="45.73455" lon="-1.07526">
        <ele>10.3</ele>
        <time>2020-06-17T09:12:27Z</time>
      </trkpt>
      <trkpt lat="45.73449" lon="-1.07514">
        <ele>10.1</ele>
        <time>2020-06-17T09:12:35Z</time>
      </trkpt>
      <trkpt lat="45.73443" lon="-1.07504">
        <ele>9.9</ele>
        <time>2020-06-17T09:12:42Z</time>
      </trkpt>
      <trkpt lat="45.73437" lon="-1.07493">
        <ele>9.6</ele>
        <time>2020-06-17T09:12:50Z</time>
      </trkpt>
      <trkpt lat="45.73431" lon="-1.07483">
        <ele>9.4</ele>
        <time>2020-06-17T09:12:58Z</time>
      </trkpt>
      <trkpt lat="45.73426" lon="-1.07471">
        <ele>9.1</ele>
        <time>2020-06-17T09:13:08Z</time>
      </trkpt>
      <trkpt lat="45.73432" lon="-1.07459">
        <ele>8.7</ele>
        <time>2020-06-17T09:13:17Z</time>
      </trkpt>
      <trkpt lat="45.7344" lon="-1.07453">
        <ele>8.5</ele>
        <time>2020-06-17T09:13:25Z</time>
      </trkpt>
      <trkpt lat="45.73449" lon="-1.07445">
        <ele>8.1</ele>
        <time>2020-06-17T09:13:33Z</time>
      </trkpt>
      <trkpt lat="45.73458" lon="-1.07439">
        <ele>7.9</ele>
        <time>2020-06-17T09:13:41Z</time>
      </trkpt>
      <trkpt lat="45.73467" lon="-1.07433">
        <ele>7.8</ele>
        <time>2020-06-17T09:13:49Z</time>
      </trkpt>
      <trkpt lat="45.73475" lon="-1.07425">
        <ele>7.7</ele>
        <time>2020-06-17T09:13:57Z</time>
      </trkpt>
      <trkpt lat="45.73484" lon="-1.07418">
        <ele>7.6</ele>
        <time>2020-06-17T09:14:06Z</time>
      </trkpt>
      <trkpt lat="45.73492" lon="-1.07411">
        <ele>7.6</ele>
        <time>2020-06-17T09:14:14Z</time>
      </trkpt>
      <trkpt lat="45.735" lon="-1.07403">
        <ele>7.6</ele>
        <time>2020-06-17T09:14:21Z</time>
      </trkpt>
      <trkpt lat="45.73508" lon="-1.07397">
        <ele>7.5</ele>
        <time>2020-06-17T09:14:29Z</time>
      </trkpt>
      <trkpt lat="45.73517" lon="-1.07391">
        <ele>7.5</ele>
        <time>2020-06-17T09:14:37Z</time>
      </trkpt>
      <trkpt lat="45.73525" lon="-1.07385">
        <ele>7.6</ele>
        <time>2020-06-17T09:14:45Z</time>
      </trkpt>
      <trkpt lat="45.73535" lon="-1.0738">
        <ele>7.8</ele>
        <time>2020-06-17T09:14:53Z</time>
      </trkpt>
      <trkpt lat="45.73544" lon="-1.07374">
        <ele>7.9</ele>
        <time>2020-06-17T09:15:02Z</time>
      </trkpt>
      <trkpt lat="45.73552" lon="-1.07367">
        <ele>8.2</ele>
        <time>2020-06-17T09:15:11Z</time>
      </trkpt>
      <trkpt lat="45.73561" lon="-1.07362">
        <ele>8.4</ele>
        <time>2020-06-17T09:15:19Z</time>
      </trkpt>
      <trkpt lat="45.7357" lon="-1.07356">
        <ele>8.8</ele>
        <time>2020-06-17T09:15:29Z</time>
      </trkpt>
      <trkpt lat="45.7358" lon="-1.07351">
        <ele>9.2</ele>
        <time>2020-06-17T09:15:38Z</time>
      </trkpt>
      <trkpt lat="45.73588" lon="-1.07346">
        <ele>9.4</ele>
        <time>2020-06-17T09:15:46Z</time>
      </trkpt>
      <trkpt lat="45.73597" lon="-1.07342">
        <ele>9.6</ele>
        <time>2020-06-17T09:15:54Z</time>
      </trkpt>
      <trkpt lat="45.73606" lon="-1.07335">
        <ele>10.1</ele>
        <time>2020-06-17T09:16:03Z</time>
      </trkpt>
      <trkpt lat="45.73615" lon="-1.0733">
        <ele>10.4</ele>
        <time>2020-06-17T09:16:12Z</time>
      </trkpt>
      <trkpt lat="45.73624" lon="-1.07325">
        <ele>10.6</ele>
        <time>2020-06-17T09:16:20Z</time>
      </trkpt>
      <trkpt lat="45.73631" lon="-1.07317">
        <ele>10.9</ele>
        <time>2020-06-17T09:16:28Z</time>
      </trkpt>
      <trkpt lat="45.73635" lon="-1.07305">
        <ele>11.3</ele>
        <time>2020-06-17T09:16:35Z</time>
      </trkpt>
      <trkpt lat="45.7364" lon="-1.07293">
        <ele>11.5</ele>
        <time>2020-06-17T09:16:44Z</time>
      </trkpt>
      <trkpt lat="45.73644" lon="-1.07281">
        <ele>11.6</ele>
        <time>2020-06-17T09:16:52Z</time>
      </trkpt>
      <trkpt lat="45.73649" lon="-1.07268">
        <ele>11.4</ele>
        <time>2020-06-17T09:17:01Z</time>
      </trkpt>
      <trkpt lat="45.73652" lon="-1.07256">
        <ele>11.3</ele>
        <time>2020-06-17T09:17:09Z</time>
      </trkpt>
      <trkpt lat="45.73656" lon="-1.07244">
        <ele>11.3</ele>
        <time>2020-06-17T09:17:17Z</time>
      </trkpt>
      <trkpt lat="45.7366" lon="-1.07232">
        <ele>11.3</ele>
        <time>2020-06-17T09:17:25Z</time>
      </trkpt>
      <trkpt lat="45.73664" lon="-1.07219">
        <ele>11.4</ele>
        <time>2020-06-17T09:17:34Z</time>
      </trkpt>
      <trkpt lat="45.73668" lon="-1.07206">
        <ele>11.4</ele>
        <time>2020-06-17T09:17:42Z</time>
      </trkpt>
      <trkpt lat="45.73673" lon="-1.07194">
        <ele>11.5</ele>
        <time>2020-06-17T09:17:50Z</time>
      </trkpt>
      <trkpt lat="45.73678" lon="-1.07183">
        <ele>11.7</ele>
        <time>2020-06-17T09:18:01Z</time>
      </trkpt>
      <trkpt lat="45.73685" lon="-1.07173">
        <ele>11.8</ele>
        <time>2020-06-17T09:18:09Z</time>
      </trkpt>
      <trkpt lat="45.73692" lon="-1.07164">
        <ele>11.6</ele>
        <time>2020-06-17T09:18:17Z</time>
      </trkpt>
      <trkpt lat="45.73699" lon="-1.07154">
        <ele>11.5</ele>
        <time>2020-06-17T09:18:25Z</time>
      </trkpt>
      <trkpt lat="45.73706" lon="-1.07145">
        <ele>11.4</ele>
        <time>2020-06-17T09:18:33Z</time>
      </trkpt>
      <trkpt lat="45.73713" lon="-1.07136">
        <ele>11.4</ele>
        <time>2020-06-17T09:18:41Z</time>
      </trkpt>
      <trkpt lat="45.73719" lon="-1.07127">
        <ele>10.8</ele>
        <time>2020-06-17T09:18:50Z</time>
      </trkpt>
      <trkpt lat="45.73728" lon="-1.07119">
        <ele>10.9</ele>
        <time>2020-06-17T09:18:59Z</time>
      </trkpt>
      <trkpt lat="45.73735" lon="-1.0711">
        <ele>10.8</ele>
        <time>2020-06-17T09:19:08Z</time>
      </trkpt>
      <trkpt lat="45.73743" lon="-1.07102">
        <ele>10.5</ele>
        <time>2020-06-17T09:19:16Z</time>
      </trkpt>
      <trkpt lat="45.7375" lon="-1.07093">
        <ele>10.3</ele>
        <time>2020-06-17T09:19:24Z</time>
      </trkpt>
      <trkpt lat="45.73757" lon="-1.07084">
        <ele>9.9</ele>
        <time>2020-06-17T09:19:32Z</time>
      </trkpt>
      <trkpt lat="45.73764" lon="-1.07075">
        <ele>9.5</ele>
        <time>2020-06-17T09:19:40Z</time>
      </trkpt>
      <trkpt lat="45.73772" lon="-1.07067">
        <ele>9.1</ele>
        <time>2020-06-17T09:19:49Z</time>
      </trkpt>
      <trkpt lat="45.7378" lon="-1.07058">
        <ele>9</ele>
        <time>2020-06-17T09:19:56Z</time>
      </trkpt>
      <trkpt lat="45.73787" lon="-1.0705">
        <ele>8.8</ele>
        <time>2020-06-17T09:20:04Z</time>
      </trkpt>
      <trkpt lat="45.73794" lon="-1.07041">
        <ele>8.8</ele>
        <time>2020-06-17T09:20:11Z</time>
      </trkpt>
      <trkpt lat="45.738" lon="-1.07031">
        <ele>8.6</ele>
        <time>2020-06-17T09:20:18Z</time>
      </trkpt>
      <trkpt lat="45.73806" lon="-1.0702">
        <ele>8.3</ele>
        <time>2020-06-17T09:20:27Z</time>
      </trkpt>
      <trkpt lat="45.73812" lon="-1.07009">
        <ele>8.2</ele>
        <time>2020-06-17T09:20:36Z</time>
      </trkpt>
      <trkpt lat="45.73819" lon="-1.06999">
        <ele>8.1</ele>
        <time>2020-06-17T09:20:45Z</time>
      </trkpt>
      <trkpt lat="45.73826" lon="-1.06989">
        <ele>8.3</ele>
        <time>2020-06-17T09:20:53Z</time>
      </trkpt>
      <trkpt lat="45.73832" lon="-1.06979">
        <ele>8.6</ele>
        <time>2020-06-17T09:21:01Z</time>
      </trkpt>
      <trkpt lat="45.73838" lon="-1.06968">
        <ele>8.8</ele>
        <time>2020-06-17T09:21:09Z</time>
      </trkpt>
      <trkpt lat="45.73845" lon="-1.06958">
        <ele>8.9</ele>
        <time>2020-06-17T09:21:18Z</time>
      </trkpt>
      <trkpt lat="45.73852" lon="-1.06948">
        <ele>8.9</ele>
        <time>2020-06-17T09:21:26Z</time>
      </trkpt>
      <trkpt lat="45.73859" lon="-1.06937">
        <ele>9</ele>
        <time>2020-06-17T09:21:35Z</time>
      </trkpt>
      <trkpt lat="45.73866" lon="-1.06928">
        <ele>9.1</ele>
        <time>2020-06-17T09:21:43Z</time>
      </trkpt>
      <trkpt lat="45.73872" lon="-1.06918">
        <ele>9.1</ele>
        <time>2020-06-17T09:21:51Z</time>
      </trkpt>
      <trkpt lat="45.73878" lon="-1.06908">
        <ele>9.1</ele>
        <time>2020-06-17T09:21:59Z</time>
      </trkpt>
      <trkpt lat="45.73884" lon="-1.06897">
        <ele>9</ele>
        <time>2020-06-17T09:22:08Z</time>
      </trkpt>
      <trkpt lat="45.7389" lon="-1.06887">
        <ele>8.6</ele>
        <time>2020-06-17T09:22:16Z</time>
      </trkpt>
      <trkpt lat="45.73888" lon="-1.06873">
        <ele>8.4</ele>
        <time>2020-06-17T09:22:25Z</time>
      </trkpt>
      <trkpt lat="45.73883" lon="-1.06861">
        <ele>8.2</ele>
        <time>2020-06-17T09:22:33Z</time>
      </trkpt>
      <trkpt lat="45.73876" lon="-1.0685">
        <ele>8.1</ele>
        <time>2020-06-17T09:22:42Z</time>
      </trkpt>
      <trkpt lat="45.7387" lon="-1.06841">
        <ele>8</ele>
        <time>2020-06-17T09:22:50Z</time>
      </trkpt>
      <trkpt lat="45.73866" lon="-1.06828">
        <ele>8</ele>
        <time>2020-06-17T09:22:59Z</time>
      </trkpt>
      <trkpt lat="45.73874" lon="-1.06819">
        <ele>8</ele>
        <time>2020-06-17T09:23:08Z</time>
      </trkpt>
      <trkpt lat="45.73882" lon="-1.06811">
        <ele>7.7</ele>
        <time>2020-06-17T09:23:17Z</time>
      </trkpt>
      <trkpt lat="45.73889" lon="-1.06801">
        <ele>7.4</ele>
        <time>2020-06-17T09:23:26Z</time>
      </trkpt>
      <trkpt lat="45.73889" lon="-1.06788">
        <ele>7</ele>
        <time>2020-06-17T09:23:34Z</time>
      </trkpt>
      <trkpt lat="45.73883" lon="-1.06777">
        <ele>6.9</ele>
        <time>2020-06-17T09:23:42Z</time>
      </trkpt>
      <trkpt lat="45.73876" lon="-1.06768">
        <ele>7</ele>
        <time>2020-06-17T09:23:49Z</time>
      </trkpt>
      <trkpt lat="45.73871" lon="-1.06757">
        <ele>7</ele>
        <time>2020-06-17T09:23:57Z</time>
      </trkpt>
      <trkpt lat="45.73865" lon="-1.06747">
        <ele>7</ele>
        <time>2020-06-17T09:24:05Z</time>
      </trkpt>
      <trkpt lat="45.7386" lon="-1.06735">
        <ele>7</ele>
        <time>2020-06-17T09:24:14Z</time>
      </trkpt>
      <trkpt lat="45.73854" lon="-1.06724">
        <ele>7</ele>
        <time>2020-06-17T09:24:22Z</time>
      </trkpt>
      <trkpt lat="45.73849" lon="-1.06713">
        <ele>7</ele>
        <time>2020-06-17T09:24:31Z</time>
      </trkpt>
      <trkpt lat="45.73843" lon="-1.06703">
        <ele>7</ele>
        <time>2020-06-17T09:24:40Z</time>
      </trkpt>
      <trkpt lat="45.73837" lon="-1.06694">
        <ele>7</ele>
        <time>2020-06-17T09:24:49Z</time>
      </trkpt>
      <trkpt lat="45.73832" lon="-1.06683">
        <ele>7.1</ele>
        <time>2020-06-17T09:24:56Z</time>
      </trkpt>
      <trkpt lat="45.73826" lon="-1.06671">
        <ele>7.1</ele>
        <time>2020-06-17T09:25:06Z</time>
      </trkpt>
      <trkpt lat="45.7382" lon="-1.06662">
        <ele>7.1</ele>
        <time>2020-06-17T09:25:14Z</time>
      </trkpt>
      <trkpt lat="45.73813" lon="-1.06653">
        <ele>7.2</ele>
        <time>2020-06-17T09:25:22Z</time>
      </trkpt>
      <trkpt lat="45.73808" lon="-1.06641">
        <ele>7.2</ele>
        <time>2020-06-17T09:25:30Z</time>
      </trkpt>
      <trkpt lat="45.73802" lon="-1.0663">
        <ele>7.2</ele>
        <time>2020-06-17T09:25:38Z</time>
      </trkpt>
      <trkpt lat="45.73796" lon="-1.0662">
        <ele>7.2</ele>
        <time>2020-06-17T09:25:54Z</time>
      </trkpt>
      <trkpt lat="45.7379" lon="-1.06608">
        <ele>7.2</ele>
        <time>2020-06-17T09:26:05Z</time>
      </trkpt>
      <trkpt lat="45.73783" lon="-1.06598">
        <ele>7.2</ele>
        <time>2020-06-17T09:26:15Z</time>
      </trkpt>
      <trkpt lat="45.73778" lon="-1.06586">
        <ele>7.2</ele>
        <time>2020-06-17T09:26:23Z</time>
      </trkpt>
      <trkpt lat="45.73772" lon="-1.06575">
        <ele>7.2</ele>
        <time>2020-06-17T09:26:37Z</time>
      </trkpt>
      <trkpt lat="45.73765" lon="-1.06566">
        <ele>7.2</ele>
        <time>2020-06-17T09:26:52Z</time>
      </trkpt>
      <trkpt lat="45.73756" lon="-1.06565">
        <ele>7.2</ele>
        <time>2020-06-17T09:26:59Z</time>
      </trkpt>
      <trkpt lat="45.73747" lon="-1.06563">
        <ele>7.2</ele>
        <time>2020-06-17T09:27:06Z</time>
      </trkpt>
      <trkpt lat="45.73737" lon="-1.06562">
        <ele>7.2</ele>
        <time>2020-06-17T09:27:14Z</time>
      </trkpt>
      <trkpt lat="45.73727" lon="-1.06562">
        <ele>7.2</ele>
        <time>2020-06-17T09:27:24Z</time>
      </trkpt>
      <trkpt lat="45.73717" lon="-1.06559">
        <ele>7.2</ele>
        <time>2020-06-17T09:27:32Z</time>
      </trkpt>
      <trkpt lat="45.73708" lon="-1.06558">
        <ele>7.2</ele>
        <time>2020-06-17T09:27:40Z</time>
      </trkpt>
      <trkpt lat="45.73698" lon="-1.06559">
        <ele>7.2</ele>
        <time>2020-06-17T09:27:49Z</time>
      </trkpt>
      <trkpt lat="45.73692" lon="-1.06548">
        <ele>7.2</ele>
        <time>2020-06-17T09:28:00Z</time>
      </trkpt>
      <trkpt lat="45.7369" lon="-1.06534">
        <ele>7.3</ele>
        <time>2020-06-17T09:28:08Z</time>
      </trkpt>
      <trkpt lat="45.73688" lon="-1.06521">
        <ele>7.4</ele>
        <time>2020-06-17T09:28:15Z</time>
      </trkpt>
      <trkpt lat="45.73686" lon="-1.06508">
        <ele>7.5</ele>
        <time>2020-06-17T09:28:22Z</time>
      </trkpt>
      <trkpt lat="45.73683" lon="-1.06496">
        <ele>7.5</ele>
        <time>2020-06-17T09:28:29Z</time>
      </trkpt>
      <trkpt lat="45.73681" lon="-1.06482">
        <ele>7.5</ele>
        <time>2020-06-17T09:28:37Z</time>
      </trkpt>
      <trkpt lat="45.73679" lon="-1.06469">
        <ele>7.5</ele>
        <time>2020-06-17T09:28:45Z</time>
      </trkpt>
      <trkpt lat="45.73678" lon="-1.06456">
        <ele>7.5</ele>
        <time>2020-06-17T09:28:52Z</time>
      </trkpt>
      <trkpt lat="45.73676" lon="-1.06443">
        <ele>7.5</ele>
        <time>2020-06-17T09:28:59Z</time>
      </trkpt>
      <trkpt lat="45.73674" lon="-1.0643">
        <ele>7.5</ele>
        <time>2020-06-17T09:29:06Z</time>
      </trkpt>
      <trkpt lat="45.73673" lon="-1.06416">
        <ele>7.4</ele>
        <time>2020-06-17T09:29:14Z</time>
      </trkpt>
      <trkpt lat="45.7367" lon="-1.06402">
        <ele>7.1</ele>
        <time>2020-06-17T09:29:22Z</time>
      </trkpt>
      <trkpt lat="45.73666" lon="-1.0639">
        <ele>6.8</ele>
        <time>2020-06-17T09:29:30Z</time>
      </trkpt>
      <trkpt lat="45.73661" lon="-1.06378">
        <ele>6.5</ele>
        <time>2020-06-17T09:29:38Z</time>
      </trkpt>
      <trkpt lat="45.73655" lon="-1.06368">
        <ele>6.1</ele>
        <time>2020-06-17T09:29:45Z</time>
      </trkpt>
      <trkpt lat="45.73646" lon="-1.0636">
        <ele>5.8</ele>
        <time>2020-06-17T09:29:52Z</time>
      </trkpt>
      <trkpt lat="45.73638" lon="-1.06354">
        <ele>5.5</ele>
        <time>2020-06-17T09:30:00Z</time>
      </trkpt>
      <trkpt lat="45.73629" lon="-1.06349">
        <ele>5.2</ele>
        <time>2020-06-17T09:30:08Z</time>
      </trkpt>
      <trkpt lat="45.7362" lon="-1.06344">
        <ele>5</ele>
        <time>2020-06-17T09:30:16Z</time>
      </trkpt>
      <trkpt lat="45.73611" lon="-1.06338">
        <ele>4.5</ele>
        <time>2020-06-17T09:30:24Z</time>
      </trkpt>
      <trkpt lat="45.73602" lon="-1.06332">
        <ele>4.1</ele>
        <time>2020-06-17T09:30:32Z</time>
      </trkpt>
      <trkpt lat="45.73593" lon="-1.06325">
        <ele>3.6</ele>
        <time>2020-06-17T09:30:40Z</time>
      </trkpt>
      <trkpt lat="45.73585" lon="-1.06317">
        <ele>3.1</ele>
        <time>2020-06-17T09:30:48Z</time>
      </trkpt>
      <trkpt lat="45.73578" lon="-1.06309">
        <ele>2.6</ele>
        <time>2020-06-17T09:30:56Z</time>
      </trkpt>
      <trkpt lat="45.73569" lon="-1.06303">
        <ele>2.2</ele>
        <time>2020-06-17T09:31:04Z</time>
      </trkpt>
      <trkpt lat="45.73565" lon="-1.06291">
        <ele>1.6</ele>
        <time>2020-06-17T09:31:12Z</time>
      </trkpt>
      <trkpt lat="45.7357" lon="-1.06279">
        <ele>1</ele>
        <time>2020-06-17T09:31:22Z</time>
      </trkpt>
      <trkpt lat="45.73577" lon="-1.06268">
        <ele>0.5</ele>
        <time>2020-06-17T09:31:31Z</time>
      </trkpt>
      <trkpt lat="45.73582" lon="-1.06257">
        <ele>0.3</ele>
        <time>2020-06-17T09:31:38Z</time>
      </trkpt>
      <trkpt lat="45.73587" lon="-1.06246">
        <ele>0.2</ele>
        <time>2020-06-17T09:31:45Z</time>
      </trkpt>
      <trkpt lat="45.73592" lon="-1.06235">
        <ele>0.2</ele>
        <time>2020-06-17T09:31:52Z</time>
      </trkpt>
      <trkpt lat="45.73598" lon="-1.06224">
        <ele>0.4</ele>
        <time>2020-06-17T09:31:59Z</time>
      </trkpt>
      <trkpt lat="45.73604" lon="-1.06212">
        <ele>0.5</ele>
        <time>2020-06-17T09:32:07Z</time>
      </trkpt>
      <trkpt lat="45.73608" lon="-1.062">
        <ele>0.6</ele>
        <time>2020-06-17T09:32:15Z</time>
      </trkpt>
      <trkpt lat="45.73613" lon="-1.06188">
        <ele>0.6</ele>
        <time>2020-06-17T09:32:22Z</time>
      </trkpt>
      <trkpt lat="45.73618" lon="-1.06176">
        <ele>0.6</ele>
        <time>2020-06-17T09:32:30Z</time>
      </trkpt>
      <trkpt lat="45.73624" lon="-1.06165">
        <ele>0.6</ele>
        <time>2020-06-17T09:32:39Z</time>
      </trkpt>
      <trkpt lat="45.73631" lon="-1.06158">
        <ele>0.7</ele>
        <time>2020-06-17T09:32:47Z</time>
      </trkpt>
      <trkpt lat="45.73639" lon="-1.06149">
        <ele>0.7</ele>
        <time>2020-06-17T09:32:55Z</time>
      </trkpt>
      <trkpt lat="45.73646" lon="-1.06139">
        <ele>0.6</ele>
        <time>2020-06-17T09:33:02Z</time>
      </trkpt>
      <trkpt lat="45.73653" lon="-1.0613">
        <ele>0.6</ele>
        <time>2020-06-17T09:33:08Z</time>
      </trkpt>
      <trkpt lat="45.73661" lon="-1.06123">
        <ele>0.6</ele>
        <time>2020-06-17T09:33:16Z</time>
      </trkpt>
      <trkpt lat="45.73669" lon="-1.06117">
        <ele>0.5</ele>
        <time>2020-06-17T09:33:23Z</time>
      </trkpt>
      <trkpt lat="45.73677" lon="-1.0611">
        <ele>0.3</ele>
        <time>2020-06-17T09:33:32Z</time>
      </trkpt>
      <trkpt lat="45.73684" lon="-1.06101">
        <ele>0.1</ele>
        <time>2020-06-17T09:33:40Z</time>
      </trkpt>
      <trkpt lat="45.73692" lon="-1.06092">
        <ele>-0.3</ele>
        <time>2020-06-17T09:33:47Z</time>
      </trkpt>
      <trkpt lat="45.73699" lon="-1.06081">
        <ele>-0.7</ele>
        <time>2020-06-17T09:33:55Z</time>
      </trkpt>
      <trkpt lat="45.73702" lon="-1.06068">
        <ele>-1.5</ele>
        <time>2020-06-17T09:34:09Z</time>
      </trkpt>
      <trkpt lat="45.73696" lon="-1.06057">
        <ele>-1.6</ele>
        <time>2020-06-17T09:34:13Z</time>
      </trkpt>
      <trkpt lat="45.73693" lon="-1.06044">
        <ele>-1.9</ele>
        <time>2020-06-17T09:34:20Z</time>
      </trkpt>
      <trkpt lat="45.73693" lon="-1.06031">
        <ele>-2.2</ele>
        <time>2020-06-17T09:34:26Z</time>
      </trkpt>
      <trkpt lat="45.7369" lon="-1.06017">
        <ele>-2.5</ele>
        <time>2020-06-17T09:34:32Z</time>
      </trkpt>
      <trkpt lat="45.7369" lon="-1.06003">
        <ele>-2.8</ele>
        <time>2020-06-17T09:34:41Z</time>
      </trkpt>
      <trkpt lat="45.73682" lon="-1.05998">
        <ele>-3.1</ele>
        <time>2020-06-17T09:34:50Z</time>
      </trkpt>
      <trkpt lat="45.73673" lon="-1.05995">
        <ele>-3.2</ele>
        <time>2020-06-17T09:34:59Z</time>
      </trkpt>
      <trkpt lat="45.73664" lon="-1.05992">
        <ele>-3.3</ele>
        <time>2020-06-17T09:35:07Z</time>
      </trkpt>
      <trkpt lat="45.73654" lon="-1.05989">
        <ele>-3.3</ele>
        <time>2020-06-17T09:35:15Z</time>
      </trkpt>
      <trkpt lat="45.73644" lon="-1.05987">
        <ele>-3.3</ele>
        <time>2020-06-17T09:35:22Z</time>
      </trkpt>
      <trkpt lat="45.73634" lon="-1.05985">
        <ele>-3.3</ele>
        <time>2020-06-17T09:35:29Z</time>
      </trkpt>
      <trkpt lat="45.73625" lon="-1.05979">
        <ele>-3.3</ele>
        <time>2020-06-17T09:35:38Z</time>
      </trkpt>
      <trkpt lat="45.73615" lon="-1.05979">
        <ele>-3.3</ele>
        <time>2020-06-17T09:35:45Z</time>
      </trkpt>
      <trkpt lat="45.73605" lon="-1.05979">
        <ele>-3.3</ele>
        <time>2020-06-17T09:35:53Z</time>
      </trkpt>
      <trkpt lat="45.73596" lon="-1.05982">
        <ele>-3.3</ele>
        <time>2020-06-17T09:36:00Z</time>
      </trkpt>
      <trkpt lat="45.73587" lon="-1.05986">
        <ele>-3.3</ele>
        <time>2020-06-17T09:36:07Z</time>
      </trkpt>
      <trkpt lat="45.73578" lon="-1.05993">
        <ele>-3.4</ele>
        <time>2020-06-17T09:36:15Z</time>
      </trkpt>
      <trkpt lat="45.73571" lon="-1.06002">
        <ele>-3.5</ele>
        <time>2020-06-17T09:36:22Z</time>
      </trkpt>
      <trkpt lat="45.73563" lon="-1.0601">
        <ele>-3.5</ele>
        <time>2020-06-17T09:36:30Z</time>
      </trkpt>
      <trkpt lat="45.73554" lon="-1.06012">
        <ele>-3.6</ele>
        <time>2020-06-17T09:36:38Z</time>
      </trkpt>
      <trkpt lat="45.73544" lon="-1.06005">
        <ele>-3.6</ele>
        <time>2020-06-17T09:36:46Z</time>
      </trkpt>
      <trkpt lat="45.73536" lon="-1.05999">
        <ele>-3.6</ele>
        <time>2020-06-17T09:36:54Z</time>
      </trkpt>
      <trkpt lat="45.73527" lon="-1.05998">
        <ele>-3.6</ele>
        <time>2020-06-17T09:37:01Z</time>
      </trkpt>
      <trkpt lat="45.73518" lon="-1.05992">
        <ele>-3.6</ele>
        <time>2020-06-17T09:37:09Z</time>
      </trkpt>
      <trkpt lat="45.7351" lon="-1.05984">
        <ele>-3.6</ele>
        <time>2020-06-17T09:37:17Z</time>
      </trkpt>
      <trkpt lat="45.73501" lon="-1.05978">
        <ele>-3.6</ele>
        <time>2020-06-17T09:37:26Z</time>
      </trkpt>
      <trkpt lat="45.73491" lon="-1.05975">
        <ele>-3.6</ele>
        <time>2020-06-17T09:37:34Z</time>
      </trkpt>
      <trkpt lat="45.73482" lon="-1.05973">
        <ele>-3.8</ele>
        <time>2020-06-17T09:37:42Z</time>
      </trkpt>
      <trkpt lat="45.73472" lon="-1.05971">
        <ele>-4</ele>
        <time>2020-06-17T09:37:51Z</time>
      </trkpt>
      <trkpt lat="45.73462" lon="-1.0597">
        <ele>-4</ele>
        <time>2020-06-17T09:37:58Z</time>
      </trkpt>
      <trkpt lat="45.73453" lon="-1.05968">
        <ele>-4.1</ele>
        <time>2020-06-17T09:38:05Z</time>
      </trkpt>
      <trkpt lat="45.73444" lon="-1.05965">
        <ele>-4.1</ele>
        <time>2020-06-17T09:38:12Z</time>
      </trkpt>
      <trkpt lat="45.73435" lon="-1.05962">
        <ele>-4</ele>
        <time>2020-06-17T09:38:19Z</time>
      </trkpt>
      <trkpt lat="45.73426" lon="-1.05958">
        <ele>-4</ele>
        <time>2020-06-17T09:38:27Z</time>
      </trkpt>
      <trkpt lat="45.73418" lon="-1.05952">
        <ele>-3.9</ele>
        <time>2020-06-17T09:38:36Z</time>
      </trkpt>
      <trkpt lat="45.73409" lon="-1.05947">
        <ele>-3.9</ele>
        <time>2020-06-17T09:38:44Z</time>
      </trkpt>
      <trkpt lat="45.73399" lon="-1.05948">
        <ele>-3.9</ele>
        <time>2020-06-17T09:38:52Z</time>
      </trkpt>
      <trkpt lat="45.73391" lon="-1.05956">
        <ele>-3.9</ele>
        <time>2020-06-17T09:38:59Z</time>
      </trkpt>
      <trkpt lat="45.73386" lon="-1.05967">
        <ele>-3.9</ele>
        <time>2020-06-17T09:39:06Z</time>
      </trkpt>
      <trkpt lat="45.73382" lon="-1.05979">
        <ele>-3.9</ele>
        <time>2020-06-17T09:39:13Z</time>
      </trkpt>
      <trkpt lat="45.73378" lon="-1.05991">
        <ele>-3.8</ele>
        <time>2020-06-17T09:39:20Z</time>
      </trkpt>
      <trkpt lat="45.73374" lon="-1.06004">
        <ele>-3.8</ele>
        <time>2020-06-17T09:39:28Z</time>
      </trkpt>
      <trkpt lat="45.7337" lon="-1.06017">
        <ele>-3.7</ele>
        <time>2020-06-17T09:39:35Z</time>
      </trkpt>
      <trkpt lat="45.73366" lon="-1.06029">
        <ele>-3.7</ele>
        <time>2020-06-17T09:39:44Z</time>
      </trkpt>
      <trkpt lat="45.73362" lon="-1.06042">
        <ele>-3.8</ele>
        <time>2020-06-17T09:39:51Z</time>
      </trkpt>
      <trkpt lat="45.73356" lon="-1.06053">
        <ele>-3.8</ele>
        <time>2020-06-17T09:39:58Z</time>
      </trkpt>
      <trkpt lat="45.73351" lon="-1.06064">
        <ele>-3.8</ele>
        <time>2020-06-17T09:40:05Z</time>
      </trkpt>
      <trkpt lat="45.73345" lon="-1.06075">
        <ele>-3.8</ele>
        <time>2020-06-17T09:40:12Z</time>
      </trkpt>
      <trkpt lat="45.73339" lon="-1.06084">
        <ele>-3.8</ele>
        <time>2020-06-17T09:40:19Z</time>
      </trkpt>
      <trkpt lat="45.73333" lon="-1.06093">
        <ele>-3.8</ele>
        <time>2020-06-17T09:40:26Z</time>
      </trkpt>
      <trkpt lat="45.73325" lon="-1.06102">
        <ele>-3.8</ele>
        <time>2020-06-17T09:40:34Z</time>
      </trkpt>
      <trkpt lat="45.73319" lon="-1.06112">
        <ele>-3.8</ele>
        <time>2020-06-17T09:40:41Z</time>
      </trkpt>
      <trkpt lat="45.73313" lon="-1.06122">
        <ele>-3.8</ele>
        <time>2020-06-17T09:40:48Z</time>
      </trkpt>
      <trkpt lat="45.73306" lon="-1.06133">
        <ele>-3.9</ele>
        <time>2020-06-17T09:40:56Z</time>
      </trkpt>
      <trkpt lat="45.733" lon="-1.06143">
        <ele>-4</ele>
        <time>2020-06-17T09:41:04Z</time>
      </trkpt>
      <trkpt lat="45.73294" lon="-1.06154">
        <ele>-4.1</ele>
        <time>2020-06-17T09:41:12Z</time>
      </trkpt>
      <trkpt lat="45.73288" lon="-1.06165">
        <ele>-4.1</ele>
        <time>2020-06-17T09:41:20Z</time>
      </trkpt>
      <trkpt lat="45.73284" lon="-1.06176">
        <ele>-4</ele>
        <time>2020-06-17T09:41:29Z</time>
      </trkpt>
      <trkpt lat="45.73281" lon="-1.0619">
        <ele>-3.9</ele>
        <time>2020-06-17T09:41:37Z</time>
      </trkpt>
      <trkpt lat="45.73278" lon="-1.06203">
        <ele>-4</ele>
        <time>2020-06-17T09:41:44Z</time>
      </trkpt>
      <trkpt lat="45.73277" lon="-1.06216">
        <ele>-4</ele>
        <time>2020-06-17T09:41:50Z</time>
      </trkpt>
      <trkpt lat="45.73275" lon="-1.0623">
        <ele>-4</ele>
        <time>2020-06-17T09:41:58Z</time>
      </trkpt>
      <trkpt lat="45.73276" lon="-1.06244">
        <ele>-3.9</ele>
        <time>2020-06-17T09:42:07Z</time>
      </trkpt>
      <trkpt lat="45.73273" lon="-1.06258">
        <ele>-4.1</ele>
        <time>2020-06-17T09:42:14Z</time>
      </trkpt>
      <trkpt lat="45.73269" lon="-1.0627">
        <ele>-4.2</ele>
        <time>2020-06-17T09:42:22Z</time>
      </trkpt>
      <trkpt lat="45.73264" lon="-1.06281">
        <ele>-4.2</ele>
        <time>2020-06-17T09:42:29Z</time>
      </trkpt>
      <trkpt lat="45.73258" lon="-1.06291">
        <ele>-4.1</ele>
        <time>2020-06-17T09:42:37Z</time>
      </trkpt>
      <trkpt lat="45.73251" lon="-1.06302">
        <ele>-4</ele>
        <time>2020-06-17T09:42:45Z</time>
      </trkpt>
      <trkpt lat="45.73245" lon="-1.06313">
        <ele>-3.9</ele>
        <time>2020-06-17T09:42:54Z</time>
      </trkpt>
      <trkpt lat="45.73239" lon="-1.06324">
        <ele>-3.9</ele>
        <time>2020-06-17T09:43:02Z</time>
      </trkpt>
      <trkpt lat="45.73235" lon="-1.06337">
        <ele>-3.8</ele>
        <time>2020-06-17T09:43:10Z</time>
      </trkpt>
      <trkpt lat="45.73238" lon="-1.06351">
        <ele>-3.8</ele>
        <time>2020-06-17T09:43:18Z</time>
      </trkpt>
      <trkpt lat="45.73243" lon="-1.06362">
        <ele>-3.8</ele>
        <time>2020-06-17T09:43:25Z</time>
      </trkpt>
      <trkpt lat="45.73246" lon="-1.06374">
        <ele>-3.8</ele>
        <time>2020-06-17T09:43:32Z</time>
      </trkpt>
      <trkpt lat="45.7325" lon="-1.06387">
        <ele>-3.8</ele>
        <time>2020-06-17T09:43:39Z</time>
      </trkpt>
      <trkpt lat="45.73254" lon="-1.06399">
        <ele>-3.9</ele>
        <time>2020-06-17T09:43:47Z</time>
      </trkpt>
      <trkpt lat="45.73256" lon="-1.06413">
        <ele>-3.9</ele>
        <time>2020-06-17T09:43:55Z</time>
      </trkpt>
      <trkpt lat="45.7326" lon="-1.06426">
        <ele>-3.9</ele>
        <time>2020-06-17T09:44:02Z</time>
      </trkpt>
      <trkpt lat="45.73263" lon="-1.06438">
        <ele>-3.9</ele>
        <time>2020-06-17T09:44:09Z</time>
      </trkpt>
      <trkpt lat="45.73265" lon="-1.06451">
        <ele>-3.9</ele>
        <time>2020-06-17T09:44:16Z</time>
      </trkpt>
      <trkpt lat="45.73269" lon="-1.06463">
        <ele>-3.9</ele>
        <time>2020-06-17T09:44:24Z</time>
      </trkpt>
      <trkpt lat="45.73274" lon="-1.06475">
        <ele>-3.9</ele>
        <time>2020-06-17T09:44:32Z</time>
      </trkpt>
      <trkpt lat="45.73277" lon="-1.06488">
        <ele>-3.9</ele>
        <time>2020-06-17T09:44:41Z</time>
      </trkpt>
      <trkpt lat="45.73282" lon="-1.065">
        <ele>-3.8</ele>
        <time>2020-06-17T09:44:49Z</time>
      </trkpt>
      <trkpt lat="45.73285" lon="-1.06512">
        <ele>-3.7</ele>
        <time>2020-06-17T09:44:57Z</time>
      </trkpt>
      <trkpt lat="45.73291" lon="-1.06522">
        <ele>-3.7</ele>
        <time>2020-06-17T09:45:06Z</time>
      </trkpt>
      <trkpt lat="45.73298" lon="-1.06534">
        <ele>-3.5</ele>
        <time>2020-06-17T09:45:22Z</time>
      </trkpt>
      <trkpt lat="45.73304" lon="-1.06545">
        <ele>-3.3</ele>
        <time>2020-06-17T09:45:30Z</time>
      </trkpt>
      <trkpt lat="45.73311" lon="-1.06555">
        <ele>-3.2</ele>
        <time>2020-06-17T09:45:37Z</time>
      </trkpt>
      <trkpt lat="45.73319" lon="-1.06562">
        <ele>-3.2</ele>
        <time>2020-06-17T09:45:44Z</time>
      </trkpt>
      <trkpt lat="45.73322" lon="-1.06574">
        <ele>-3.1</ele>
        <time>2020-06-17T09:45:51Z</time>
      </trkpt>
      <trkpt lat="45.73325" lon="-1.06586">
        <ele>-3.1</ele>
        <time>2020-06-17T09:45:58Z</time>
      </trkpt>
      <trkpt lat="45.73331" lon="-1.06598">
        <ele>-3.1</ele>
        <time>2020-06-17T09:46:06Z</time>
      </trkpt>
      <trkpt lat="45.73334" lon="-1.06611">
        <ele>-3.1</ele>
        <time>2020-06-17T09:46:15Z</time>
      </trkpt>
      <trkpt lat="45.73336" lon="-1.06624">
        <ele>-3.1</ele>
        <time>2020-06-17T09:46:22Z</time>
      </trkpt>
      <trkpt lat="45.73337" lon="-1.06638">
        <ele>-3</ele>
        <time>2020-06-17T09:46:30Z</time>
      </trkpt>
      <trkpt lat="45.73342" lon="-1.0665">
        <ele>-3</ele>
        <time>2020-06-17T09:46:39Z</time>
      </trkpt>
      <trkpt lat="45.73344" lon="-1.06664">
        <ele>-3</ele>
        <time>2020-06-17T09:46:47Z</time>
      </trkpt>
      <trkpt lat="45.73348" lon="-1.06676">
        <ele>-3</ele>
        <time>2020-06-17T09:46:55Z</time>
      </trkpt>
      <trkpt lat="45.73346" lon="-1.0669">
        <ele>-3</ele>
        <time>2020-06-17T09:47:28Z</time>
      </trkpt>
      <trkpt lat="45.73344" lon="-1.06704">
        <ele>-3</ele>
        <time>2020-06-17T09:47:35Z</time>
      </trkpt>
      <trkpt lat="45.73341" lon="-1.06717">
        <ele>-3</ele>
        <time>2020-06-17T09:47:44Z</time>
      </trkpt>
      <trkpt lat="45.73335" lon="-1.06728">
        <ele>-3</ele>
        <time>2020-06-17T09:47:51Z</time>
      </trkpt>
      <trkpt lat="45.73331" lon="-1.0674">
        <ele>-3</ele>
        <time>2020-06-17T09:47:58Z</time>
      </trkpt>
      <trkpt lat="45.73326" lon="-1.06752">
        <ele>-3</ele>
        <time>2020-06-17T09:48:06Z</time>
      </trkpt>
      <trkpt lat="45.73325" lon="-1.06765">
        <ele>-3</ele>
        <time>2020-06-17T09:48:14Z</time>
      </trkpt>
      <trkpt lat="45.73319" lon="-1.06776">
        <ele>-3</ele>
        <time>2020-06-17T09:48:22Z</time>
      </trkpt>
      <trkpt lat="45.73313" lon="-1.06786">
        <ele>-3</ele>
        <time>2020-06-17T09:48:29Z</time>
      </trkpt>
      <trkpt lat="45.73307" lon="-1.06796">
        <ele>-2.9</ele>
        <time>2020-06-17T09:48:36Z</time>
      </trkpt>
      <trkpt lat="45.73298" lon="-1.06804">
        <ele>-2.6</ele>
        <time>2020-06-17T09:48:44Z</time>
      </trkpt>
      <trkpt lat="45.73289" lon="-1.06811">
        <ele>-2.3</ele>
        <time>2020-06-17T09:48:52Z</time>
      </trkpt>
      <trkpt lat="45.73281" lon="-1.06819">
        <ele>-2</ele>
        <time>2020-06-17T09:49:01Z</time>
      </trkpt>
      <trkpt lat="45.73272" lon="-1.06824">
        <ele>-1.7</ele>
        <time>2020-06-17T09:49:09Z</time>
      </trkpt>
      <trkpt lat="45.73263" lon="-1.06829">
        <ele>-1.5</ele>
        <time>2020-06-17T09:49:18Z</time>
      </trkpt>
      <trkpt lat="45.73253" lon="-1.06834">
        <ele>-1.3</ele>
        <time>2020-06-17T09:49:43Z</time>
      </trkpt>
      <trkpt lat="45.73245" lon="-1.06841">
        <ele>-1.2</ele>
        <time>2020-06-17T09:49:51Z</time>
      </trkpt>
      <trkpt lat="45.73237" lon="-1.06848">
        <ele>-1</ele>
        <time>2020-06-17T09:49:58Z</time>
      </trkpt>
      <trkpt lat="45.73228" lon="-1.06854">
        <ele>-0.9</ele>
        <time>2020-06-17T09:50:07Z</time>
      </trkpt>
      <trkpt lat="45.73219" lon="-1.06859">
        <ele>-0.7</ele>
        <time>2020-06-17T09:50:14Z</time>
      </trkpt>
      <trkpt lat="45.73211" lon="-1.06865">
        <ele>-0.5</ele>
        <time>2020-06-17T09:50:25Z</time>
      </trkpt>
      <trkpt lat="45.73203" lon="-1.06873">
        <ele>0.1</ele>
        <time>2020-06-17T09:50:33Z</time>
      </trkpt>
      <trkpt lat="45.73195" lon="-1.06879">
        <ele>0.5</ele>
        <time>2020-06-17T09:50:41Z</time>
      </trkpt>
      <trkpt lat="45.73187" lon="-1.06886">
        <ele>0.8</ele>
        <time>2020-06-17T09:50:49Z</time>
      </trkpt>
      <trkpt lat="45.73179" lon="-1.06891">
        <ele>1.2</ele>
        <time>2020-06-17T09:50:58Z</time>
      </trkpt>
      <trkpt lat="45.73169" lon="-1.06894">
        <ele>1.7</ele>
        <time>2020-06-17T09:51:07Z</time>
      </trkpt>
      <trkpt lat="45.73163" lon="-1.06897">
        <ele>2.5</ele>
        <time>2020-06-17T09:51:24Z</time>
      </trkpt>
    </trkseg>
  </trk>
</gpx>